Observation data for Palo Duro Reservoir 1NW on 07/19/2019      Previous  Date  Next       Current Mesonet Observations  Soil Data  Daily Summary Page  Observations in Plain Language
KPD4 190500Z 17012KT 29/17 A2985 RMK A01 T02900172  RH  049%=      5-min Rain = 0
KPD4 190501Z 17014KT 29/17 A2985 RMK A01 T02890172  RH  049%=      5-min Rain = 0
KPD4 190502Z 17014KT 29/17 A2985 RMK A01 T02880172  RH  049%=      5-min Rain = 0
KPD4 190503Z 17014KT 29/17 A2985 RMK A01 T02880172  RH  049%=      5-min Rain = 0
KPD4 190504Z 17013KT 29/17 A2985 RMK A01 T02880172  RH  049%=      5-min Rain = 0
KPD4 190505Z 16014KT 29/17 A2985 RMK A01 T02880172  RH  049%=      5-min Rain = 0
KPD4 190506Z 17013KT 29/17 A2985 RMK A01 T02880172  RH  050%=      5-min Rain = 0
KPD4 190507Z 17014KT 29/17 A2985 RMK A01 T02880172  RH  050%=      5-min Rain = 0
KPD4 190508Z 17012KT 29/17 A2985 RMK A01 T02870172  RH  050%=      5-min Rain = 0
KPD4 190509Z 17012KT 29/17 A2985 RMK A01 T02870172  RH  050%=      5-min Rain = 0
KPD4 190510Z 17013KT 29/17 A2985 RMK A01 T02860172  RH  050%=      5-min Rain = 0
KPD4 190511Z 17013KT 29/17 A2985 RMK A01 T02860173  RH  050%=      5-min Rain = 0
KPD4 190512Z 17013KT 29/17 A2985 RMK A01 T02850173  RH  051%=      5-min Rain = 0
KPD4 190513Z 17013KT 29/17 A2985 RMK A01 T02850173  RH  051%=      5-min Rain = 0
KPD4 190514Z 17014KT 29/17 A2985 RMK A01 T02850173  RH  051%=      5-min Rain = 0
KPD4 190515Z 17014KT 29/17 A2985 RMK A01 T02850173  RH  051%=      5-min Rain = 0
KPD4 190516Z 17014KT 29/17 A2985 RMK A01 T02850173  RH  051%=      5-min Rain = 0
KPD4 190517Z 17013KT 29/17 A2985 RMK A01 T02850173  RH  051%=      5-min Rain = 0
KPD4 190518Z 17012KT 29/17 A2985 RMK A01 T02850173  RH  051%=      5-min Rain = 0
KPD4 190519Z 17013KT 28/17 A2985 RMK A01 T02840173  RH  051%=      5-min Rain = 0
KPD4 190520Z 17015KT 28/17 A2985 RMK A01 T02840173  RH  051%=      5-min Rain = 0
KPD4 190521Z 17014KT 28/17 A2985 RMK A01 T02840173  RH  051%=      5-min Rain = 0
KPD4 190522Z 17014KT 28/17 A2985 RMK A01 T02840173  RH  051%=      5-min Rain = 0
KPD4 190523Z 17013KT 28/17 A2985 RMK A01 T02840173  RH  051%=      5-min Rain = 0
KPD4 190524Z 17014KT 28/17 A2985 RMK A01 T02840173  RH  051%=      5-min Rain = 0
KPD4 190525Z 17012KT 28/17 A2985 RMK A01 T02840174  RH  051%=      5-min Rain = 0
KPD4 190526Z 17013KT 28/17 A2985 RMK A01 T02830174  RH  051%=      5-min Rain = 0
KPD4 190527Z 17014KT 28/17 A2985 RMK A01 T02830174  RH  051%=      5-min Rain = 0
KPD4 190528Z 17015KT 28/17 A2985 RMK A01 T02830173  RH  051%=      5-min Rain = 0
KPD4 190529Z 17015KT 28/17 A2985 RMK A01 T02830173  RH  051%=      5-min Rain = 0
KPD4 190530Z 17014G19KT 28/17 A2985 RMK A01 T02840174  RH  051%=      5-min Rain = 0
KPD4 190531Z 17015KT 28/17 A2985 RMK A01 T02840174  RH  051%=      5-min Rain = 0
KPD4 190532Z 17014KT 28/17 A2985 RMK A01 T02840174  RH  051%=      5-min Rain = 0
KPD4 190533Z 17013KT 28/17 A2985 RMK A01 T02840174  RH  051%=      5-min Rain = 0
KPD4 190534Z 17013G18KT 28/18 A2985 RMK A01 T02840175  RH  051%=      5-min Rain = 0
KPD4 190535Z 17013KT 28/18 A2985 RMK A01 T02840175  RH  052%=      5-min Rain = 0
KPD4 190536Z 17014G19KT 28/18 A2985 RMK A01 T02830175  RH  052%=      5-min Rain = 0
KPD4 190537Z 17015KT 28/18 A2985 RMK A01 T02830175  RH  052%=      5-min Rain = 0
KPD4 190538Z 17015G20KT 28/18 A2985 RMK A01 T02830175  RH  052%=      5-min Rain = 0
KPD4 190539Z 17015KT 28/18 A2985 RMK A01 T02830175  RH  052%=      5-min Rain = 0
KPD4 190540Z 17014G19KT 28/18 A2986 RMK A01 T02830176  RH  052%=      5-min Rain = 0
KPD4 190541Z 17015KT 28/18 A2986 RMK A01 T02830176  RH  052%=      5-min Rain = 0
KPD4 190542Z 17013KT 28/18 A2986 RMK A01 T02840176  RH  052%=      5-min Rain = 0
KPD4 190543Z 17014KT 28/18 A2986 RMK A01 T02840176  RH  052%=      5-min Rain = 0
KPD4 190544Z 17015KT 28/18 A2985 RMK A01 T02830176  RH  052%=      5-min Rain = 0
KPD4 190545Z 17017KT 28/18 A2986 RMK A01 T02840176  RH  052%=      5-min Rain = 0
KPD4 190546Z 17015G20KT 28/18 A2986 RMK A01 T02840177  RH  052%=      5-min Rain = 0
KPD4 190547Z 17016KT 29/18 A2986 RMK A01 T02850177  RH  052%=      5-min Rain = 0
KPD4 190548Z 18013KT 28/18 A2986 RMK A01 T02840177  RH  052%=      5-min Rain = 0
KPD4 190549Z 17014G19KT 28/18 A2986 RMK A01 T02840177  RH  052%=      5-min Rain = 0
KPD4 190550Z 17013KT 28/18 A2986 RMK A01 T02830177  RH  053%=      5-min Rain = 0
KPD4 190551Z 17014KT 28/18 A2986 RMK A01 T02830177  RH  053%=      5-min Rain = 0
KPD4 190552Z 17014G19KT 28/18 A2986 RMK A01 T02820177  RH  053%=      5-min Rain = 0
KPD4 190553Z 17016KT 28/18 A2986 RMK A01 T02820178  RH  053%=      5-min Rain = 0
KPD4 190554Z 17014KT 28/18 A2986 RMK A01 T02820177  RH  053%=      5-min Rain = 0
KPD4 190555Z 17014KT 28/18 A2986 RMK A01 T02820177  RH  053%=      5-min Rain = 0
KPD4 190556Z 17012KT 28/18 A2986 RMK A01 T02820178  RH  053%=      5-min Rain = 0
KPD4 190557Z 17015KT 28/18 A2986 RMK A01 T02810178  RH  054%=      5-min Rain = 0
KPD4 190558Z 18013KT 28/18 A2986 RMK A01 T02810178  RH  054%=      5-min Rain = 0
KPD4 190559Z 17013KT 28/18 A2986 RMK A01 T02800178  RH  054%=      5-min Rain = 0
KPD4 190600Z 17015KT 28/18 A2986 RMK A01 T02810178  RH  054%=      5-min Rain = 0
KPD4 190601Z 17013KT 28/18 A2986 RMK A01 T02800179  RH  054%=      5-min Rain = 0
KPD4 190602Z 17015G21KT 28/18 A2986 RMK A01 T02800179  RH  054%=      5-min Rain = 0
KPD4 190603Z 17015KT 28/18 A2986 RMK A01 T02790178  RH  054%=      5-min Rain = 0
KPD4 190604Z 17015KT 28/18 A2986 RMK A01 T02800179  RH  054%=      5-min Rain = 0
KPD4 190605Z 17014KT 28/18 A2986 RMK A01 T02810179  RH  054%=      5-min Rain = 0
KPD4 190606Z 18014KT 28/18 A2986 RMK A01 T02800179  RH  054%=      5-min Rain = 0
KPD4 190607Z 17013KT 28/18 A2986 RMK A01 T02800179  RH  054%=      5-min Rain = 0
KPD4 190608Z 18012KT 28/18 A2986 RMK A01 T02800179  RH  054%=      5-min Rain = 0
KPD4 190609Z 18014KT 28/18 A2986 RMK A01 T02790179  RH  055%=      5-min Rain = 0
KPD4 190610Z 18015KT 28/18 A2986 RMK A01 T02790179  RH  055%=      5-min Rain = 0
KPD4 190611Z 18012KT 28/18 A2986 RMK A01 T02800179  RH  054%=      5-min Rain = 0
KPD4 190612Z 18014KT 28/18 A2986 RMK A01 T02800179  RH  054%=      5-min Rain = 0
KPD4 190613Z 18015KT 28/18 A2986 RMK A01 T02800179  RH  054%=      5-min Rain = 0
KPD4 190614Z 18014KT 28/18 A2986 RMK A01 T02800179  RH  054%=      5-min Rain = 0
KPD4 190615Z 18013KT 28/18 A2986 RMK A01 T02790179  RH  054%=      5-min Rain = 0
KPD4 190616Z 18012KT 28/18 A2986 RMK A01 T02800179  RH  054%=      5-min Rain = 0
KPD4 190617Z 18013KT 28/18 A2986 RMK A01 T02790179  RH  055%=      5-min Rain = 0
KPD4 190618Z 18013KT 28/18 A2986 RMK A01 T02790179  RH  055%=      5-min Rain = 0
KPD4 190619Z 18015KT 28/18 A2986 RMK A01 T02790179  RH  055%=      5-min Rain = 0
KPD4 190620Z 18012KT 28/18 A2986 RMK A01 T02790180  RH  055%=      5-min Rain = 0
KPD4 190621Z 17013KT 28/18 A2986 RMK A01 T02790179  RH  055%=      5-min Rain = 0
KPD4 190622Z 18014KT 28/18 A2986 RMK A01 T02780180  RH  055%=      5-min Rain = 0
KPD4 190623Z 18013KT 28/18 A2986 RMK A01 T02780179  RH  055%=      5-min Rain = 0
KPD4 190624Z 18014KT 28/18 A2986 RMK A01 T02780180  RH  055%=      5-min Rain = 0
KPD4 190625Z 17013KT 28/18 A2986 RMK A01 T02780180  RH  055%=      5-min Rain = 0
KPD4 190626Z 18013KT 28/18 A2986 RMK A01 T02780179  RH  055%=      5-min Rain = 0
KPD4 190627Z 18014KT 28/18 A2986 RMK A01 T02780180  RH  055%=      5-min Rain = 0
KPD4 190628Z 18013KT 28/18 A2986 RMK A01 T02780179  RH  055%=      5-min Rain = 0
KPD4 190629Z 18014KT 28/18 A2986 RMK A01 T02770180  RH  055%=      5-min Rain = 0
KPD4 190630Z 18013KT 28/18 A2986 RMK A01 T02770179  RH  055%=      5-min Rain = 0
KPD4 190631Z 18013KT 28/18 A2986 RMK A01 T02780180  RH  055%=      5-min Rain = 0
KPD4 190632Z 18012KT 28/18 A2986 RMK A01 T02770180  RH  055%=      5-min Rain = 0
KPD4 190633Z 18012KT 28/18 A2986 RMK A01 T02770180  RH  055%=      5-min Rain = 0
KPD4 190634Z 18011KT 28/18 A2986 RMK A01 T02760180  RH  056%=      5-min Rain = 0
KPD4 190635Z 18011KT 28/18 A2986 RMK A01 T02750180  RH  056%=      5-min Rain = 0
KPD4 190636Z 18014KT 28/18 A2986 RMK A01 T02750180  RH  056%=      5-min Rain = 0
KPD4 190637Z 18014KT 28/18 A2986 RMK A01 T02750180  RH  056%=      5-min Rain = 0
KPD4 190638Z 18014KT 28/18 A2986 RMK A01 T02750179  RH  056%=      5-min Rain = 0
KPD4 190639Z 18013KT 28/18 A2986 RMK A01 T02760179  RH  056%=      5-min Rain = 0
KPD4 190640Z 18011KT 28/18 A2986 RMK A01 T02760179  RH  056%=      5-min Rain = 0
KPD4 190641Z 18012KT 28/18 A2986 RMK A01 T02750180  RH  056%=      5-min Rain = 0
KPD4 190642Z 18012KT 27/18 A2986 RMK A01 T02740180  RH  056%=      5-min Rain = 0
KPD4 190643Z 18012KT 27/18 A2986 RMK A01 T02740180  RH  056%=      5-min Rain = 0
KPD4 190644Z 18013KT 27/18 A2986 RMK A01 T02740180  RH  056%=      5-min Rain = 0
KPD4 190645Z 18013KT 27/18 A2986 RMK A01 T02740180  RH  056%=      5-min Rain = 0
KPD4 190646Z 18012KT 27/18 A2986 RMK A01 T02740180  RH  056%=      5-min Rain = 0
KPD4 190647Z 18012KT 27/18 A2986 RMK A01 T02740180  RH  057%=      5-min Rain = 0
KPD4 190648Z 18013KT 27/18 A2986 RMK A01 T02730180  RH  057%=      5-min Rain = 0
KPD4 190649Z 18013KT 27/18 A2986 RMK A01 T02730179  RH  057%=      5-min Rain = 0
KPD4 190650Z 18012KT 27/18 A2986 RMK A01 T02730179  RH  057%=      5-min Rain = 0
KPD4 190651Z 18012KT 27/18 A2986 RMK A01 T02730180  RH  057%=      5-min Rain = 0
KPD4 190652Z 18012KT 27/18 A2986 RMK A01 T02720179  RH  057%=      5-min Rain = 0
KPD4 190653Z 18013KT 27/18 A2986 RMK A01 T02720179  RH  057%=      5-min Rain = 0
KPD4 190654Z 19013KT 27/18 A2986 RMK A01 T02720179  RH  057%=      5-min Rain = 0
KPD4 190655Z 18014KT 27/18 A2986 RMK A01 T02720179  RH  057%=      5-min Rain = 0
KPD4 190656Z 18014KT 27/18 A2986 RMK A01 T02730179  RH  057%=      5-min Rain = 0
KPD4 190657Z 19014KT 27/18 A2986 RMK A01 T02730179  RH  056%=      5-min Rain = 0
KPD4 190658Z 18014KT 27/18 A2986 RMK A01 T02740179  RH  056%=      5-min Rain = 0
KPD4 190659Z 18011KT 27/18 A2986 RMK A01 T02730179  RH  056%=      5-min Rain = 0
KPD4 190700Z 19013KT 27/18 A2986 RMK A01 T02730179  RH  057%=      5-min Rain = 0
KPD4 190701Z 18013KT 27/18 A2986 RMK A01 T02720179  RH  057%=      5-min Rain = 0
KPD4 190702Z 18013KT 27/18 A2986 RMK A01 T02720179  RH  057%=      5-min Rain = 0
KPD4 190703Z 19013KT 27/18 A2986 RMK A01 T02720179  RH  057%=      5-min Rain = 0
KPD4 190704Z 19014KT 27/18 A2986 RMK A01 T02720179  RH  057%=      5-min Rain = 0
KPD4 190705Z 18014KT 27/18 A2986 RMK A01 T02710179  RH  057%=      5-min Rain = 0
KPD4 190706Z 18013KT 27/18 A2986 RMK A01 T02710179  RH  057%=      5-min Rain = 0
KPD4 190707Z 18013KT 27/18 A2986 RMK A01 T02710179  RH  057%=      5-min Rain = 0
KPD4 190708Z 18013KT 27/18 A2986 RMK A01 T02710179  RH  057%=      5-min Rain = 0
KPD4 190709Z 18013KT 27/18 A2986 RMK A01 T02710179  RH  057%=      5-min Rain = 0
KPD4 190710Z 18014KT 27/18 A2986 RMK A01 T02710179  RH  057%=      5-min Rain = 0
KPD4 190711Z 18011KT 27/18 A2986 RMK A01 T02710179  RH  057%=      5-min Rain = 0
KPD4 190712Z 19013KT 27/18 A2986 RMK A01 T02700179  RH  057%=      5-min Rain = 0
KPD4 190713Z 18013KT 27/18 A2986 RMK A01 T02700179  RH  057%=      5-min Rain = 0
KPD4 190714Z 18013G19KT 27/18 A2986 RMK A01 T02700178  RH  057%=      5-min Rain = 0
KPD4 190715Z 18012KT 27/18 A2986 RMK A01 T02700178  RH  057%=      5-min Rain = 0
KPD4 190716Z 18013G18KT 27/18 A2986 RMK A01 T02690179  RH  057%=      5-min Rain = 0
KPD4 190717Z 18011KT 27/18 A2986 RMK A01 T02690178  RH  058%=      5-min Rain = 0
KPD4 190718Z 18013KT 27/18 A2986 RMK A01 T02690178  RH  058%=      5-min Rain = 0
KPD4 190719Z 18013KT 27/18 A2986 RMK A01 T02690178  RH  058%=      5-min Rain = 0
KPD4 190720Z 18011KT 27/18 A2986 RMK A01 T02690178  RH  058%=      5-min Rain = 0
KPD4 190721Z 18013KT 27/18 A2986 RMK A01 T02680178  RH  058%=      5-min Rain = 0
KPD4 190722Z 18013KT 27/18 A2986 RMK A01 T02680178  RH  058%=      5-min Rain = 0
KPD4 190723Z 19012KT 27/18 A2986 RMK A01 T02680178  RH  058%=      5-min Rain = 0
KPD4 190724Z 18013KT 27/18 A2986 RMK A01 T02680178  RH  058%=      5-min Rain = 0
KPD4 190725Z 18014KT 27/18 A2986 RMK A01 T02680178  RH  058%=      5-min Rain = 0
KPD4 190726Z 18013KT 27/18 A2986 RMK A01 T02680178  RH  058%=      5-min Rain = 0
KPD4 190727Z 19012KT 27/18 A2986 RMK A01 T02690178  RH  057%=      5-min Rain = 0
KPD4 190728Z 19012G17KT 27/18 A2986 RMK A01 T02680178  RH  058%=      5-min Rain = 0
KPD4 190729Z 18012KT 27/18 A2986 RMK A01 T02680178  RH  058%=      5-min Rain = 0
KPD4 190730Z 19013KT 27/18 A2986 RMK A01 T02670178  RH  058%=      5-min Rain = 0
KPD4 190731Z 19012KT 27/18 A2986 RMK A01 T02670177  RH  058%=      5-min Rain = 0
KPD4 190732Z 18013KT 27/18 A2986 RMK A01 T02670177  RH  058%=      5-min Rain = 0
KPD4 190733Z 18014KT 27/18 A2986 RMK A01 T02680177  RH  058%=      5-min Rain = 0
KPD4 190734Z 18012KT 27/18 A2986 RMK A01 T02680177  RH  058%=      5-min Rain = 0
KPD4 190735Z 19012KT 27/18 A2986 RMK A01 T02680178  RH  058%=      5-min Rain = 0
KPD4 190736Z 19012KT 27/18 A2986 RMK A01 T02670178  RH  058%=      5-min Rain = 0
KPD4 190737Z 19013KT 27/18 A2986 RMK A01 T02660178  RH  058%=      5-min Rain = 0
KPD4 190738Z 19012KT 27/18 A2986 RMK A01 T02660178  RH  058%=      5-min Rain = 0
KPD4 190739Z 19013KT 27/18 A2986 RMK A01 T02660178  RH  058%=      5-min Rain = 0
KPD4 190740Z 19011KT 27/18 A2986 RMK A01 T02660177  RH  058%=      5-min Rain = 0
KPD4 190741Z 19012KT 27/18 A2986 RMK A01 T02650178  RH  059%=      5-min Rain = 0
KPD4 190742Z 19013KT 27/18 A2986 RMK A01 T02650178  RH  059%=      5-min Rain = 0
KPD4 190743Z 19012KT 27/18 A2986 RMK A01 T02650177  RH  059%=      5-min Rain = 0
KPD4 190744Z 19012KT 27/18 A2986 RMK A01 T02650178  RH  059%=      5-min Rain = 0
KPD4 190745Z 19012KT 27/18 A2986 RMK A01 T02650177  RH  059%=      5-min Rain = 0
KPD4 190746Z 19012KT 27/18 A2986 RMK A01 T02650177  RH  059%=      5-min Rain = 0
KPD4 190747Z 19012KT 27/18 A2986 RMK A01 T02650177  RH  059%=      5-min Rain = 0
KPD4 190748Z 19013KT 27/18 A2986 RMK A01 T02650177  RH  059%=      5-min Rain = 0
KPD4 190749Z 19011KT 26/18 A2986 RMK A01 T02640177  RH  059%=      5-min Rain = 0
KPD4 190750Z 19013KT 26/18 A2986 RMK A01 T02640177  RH  059%=      5-min Rain = 0
KPD4 190751Z 19012KT 26/18 A2986 RMK A01 T02640177  RH  059%=      5-min Rain = 0
KPD4 190752Z 19012KT 26/18 A2986 RMK A01 T02630177  RH  059%=      5-min Rain = 0
KPD4 190753Z 19011KT 26/18 A2986 RMK A01 T02640177  RH  059%=      5-min Rain = 0
KPD4 190754Z 19012KT 26/18 A2986 RMK A01 T02630177  RH  059%=      5-min Rain = 0
KPD4 190755Z 19012KT 26/18 A2986 RMK A01 T02620177  RH  060%=      5-min Rain = 0
KPD4 190756Z 19011KT 26/18 A2986 RMK A01 T02620177  RH  060%=      5-min Rain = 0
KPD4 190757Z 19012KT 26/18 A2985 RMK A01 T02620177  RH  060%=      5-min Rain = 0
KPD4 190758Z 19012KT 26/18 A2985 RMK A01 T02620178  RH  060%=      5-min Rain = 0
KPD4 190759Z 19012KT 26/18 A2985 RMK A01 T02610177  RH  060%=      5-min Rain = 0
KPD4 190800Z 19012KT 26/18 A2985 RMK A01 T02610177  RH  060%=      5-min Rain = 0
KPD4 190801Z 19011KT 26/18 A2985 RMK A01 T02610177  RH  060%=      5-min Rain = 0
KPD4 190802Z 19011KT 26/18 A2985 RMK A01 T02610177  RH  060%=      5-min Rain = 0
KPD4 190803Z 19012KT 26/18 A2985 RMK A01 T02600177  RH  060%=      5-min Rain = 0
KPD4 190804Z 19013KT 26/18 A2985 RMK A01 T02600177  RH  060%=      5-min Rain = 0
KPD4 190805Z 19014KT 26/18 A2985 RMK A01 T02610177  RH  060%=      5-min Rain = 0
KPD4 190806Z 19012KT 26/18 A2985 RMK A01 T02610177  RH  060%=      5-min Rain = 0
KPD4 190807Z 19013G19KT 26/18 A2985 RMK A01 T02610177  RH  060%=      5-min Rain = 0
KPD4 190808Z 19015KT 26/18 A2985 RMK A01 T02610177  RH  060%=      5-min Rain = 0
KPD4 190809Z 19013KT 26/18 A2985 RMK A01 T02610177  RH  060%=      5-min Rain = 0
KPD4 190810Z 19012KT 26/18 A2985 RMK A01 T02610177  RH  060%=      5-min Rain = 0
KPD4 190811Z 19015KT 26/18 A2985 RMK A01 T02610177  RH  060%=      5-min Rain = 0
KPD4 190812Z 19014KT 26/18 A2985 RMK A01 T02610177  RH  060%=      5-min Rain = 0
KPD4 190813Z 19013KT 26/18 A2985 RMK A01 T02610176  RH  059%=      5-min Rain = 0
KPD4 190814Z 19013KT 26/18 A2985 RMK A01 T02610177  RH  060%=      5-min Rain = 0
KPD4 190815Z 19013KT 26/18 A2985 RMK A01 T02610177  RH  060%=      5-min Rain = 0
KPD4 190816Z 19014KT 26/18 A2985 RMK A01 T02610177  RH  060%=      5-min Rain = 0
KPD4 190817Z 19013KT 26/18 A2985 RMK A01 T02610176  RH  060%=      5-min Rain = 0
KPD4 190818Z 19012KT 26/18 A2985 RMK A01 T02610176  RH  060%=      5-min Rain = 0
KPD4 190819Z 19013KT 26/18 A2985 RMK A01 T02610176  RH  060%=      5-min Rain = 0
KPD4 190820Z 19012KT 26/18 A2985 RMK A01 T02610176  RH  060%=      5-min Rain = 0
KPD4 190821Z 19013KT 26/18 A2985 RMK A01 T02600176  RH  060%=      5-min Rain = 0
KPD4 190822Z 19014KT 26/18 A2985 RMK A01 T02600176  RH  060%=      5-min Rain = 0
KPD4 190823Z 19012KT 26/18 A2985 RMK A01 T02610177  RH  060%=      5-min Rain = 0
KPD4 190824Z 19013KT 26/18 A2985 RMK A01 T02600176  RH  060%=      5-min Rain = 0
KPD4 190825Z 19012KT 26/18 A2985 RMK A01 T02600176  RH  060%=      5-min Rain = 0
KPD4 190826Z 19013KT 26/18 A2985 RMK A01 T02600176  RH  060%=      5-min Rain = 0
KPD4 190827Z 19014KT 26/18 A2985 RMK A01 T02600176  RH  060%=      5-min Rain = 0
KPD4 190828Z 19013KT 26/18 A2985 RMK A01 T02600176  RH  060%=      5-min Rain = 0
KPD4 190829Z 19014KT 26/18 A2985 RMK A01 T02600176  RH  060%=      5-min Rain = 0
KPD4 190830Z 19013KT 26/18 A2985 RMK A01 T02600176  RH  060%=      5-min Rain = 0
KPD4 190831Z 19015KT 26/18 A2985 RMK A01 T02590176  RH  060%=      5-min Rain = 0
KPD4 190832Z 18012KT 26/18 A2985 RMK A01 T02590176  RH  060%=      5-min Rain = 0
KPD4 190833Z 19013KT 26/18 A2985 RMK A01 T02590176  RH  060%=      5-min Rain = 0
KPD4 190834Z 18013KT 26/18 A2985 RMK A01 T02590176  RH  060%=      5-min Rain = 0
KPD4 190835Z 19014KT 26/18 A2985 RMK A01 T02590176  RH  060%=      5-min Rain = 0
KPD4 190836Z 19015KT 26/18 A2985 RMK A01 T02600176  RH  060%=      5-min Rain = 0
KPD4 190837Z 18014KT 26/18 A2985 RMK A01 T02600176  RH  060%=      5-min Rain = 0
KPD4 190838Z 18013KT 26/18 A2985 RMK A01 T02600176  RH  060%=      5-min Rain = 0
KPD4 190839Z 18014KT 26/18 A2985 RMK A01 T02600176  RH  060%=      5-min Rain = 0
KPD4 190840Z 19014KT 26/18 A2985 RMK A01 T02590176  RH  060%=      5-min Rain = 0
KPD4 190841Z 19012KT 26/18 A2985 RMK A01 T02590176  RH  060%=      5-min Rain = 0
KPD4 190842Z 18014KT 26/18 A2985 RMK A01 T02590175  RH  060%=      5-min Rain = 0
KPD4 190843Z 18014KT 26/18 A2985 RMK A01 T02590175  RH  060%=      5-min Rain = 0
KPD4 190844Z 18013KT 26/18 A2985 RMK A01 T02590176  RH  060%=      5-min Rain = 0
KPD4 190845Z 18014KT 26/18 A2985 RMK A01 T02590175  RH  060%=      5-min Rain = 0
KPD4 190846Z 19014KT 26/18 A2985 RMK A01 T02590175  RH  060%=      5-min Rain = 0
KPD4 190847Z 18014KT 26/18 A2985 RMK A01 T02590175  RH  060%=      5-min Rain = 0
KPD4 190848Z 19015KT 26/18 A2985 RMK A01 T02590175  RH  060%=      5-min Rain = 0
KPD4 190849Z 19013KT 26/18 A2985 RMK A01 T02590175  RH  060%=      5-min Rain = 0
KPD4 190850Z 19012KT 26/18 A2985 RMK A01 T02590175  RH  060%=      5-min Rain = 0
KPD4 190851Z 19014KT 26/18 A2985 RMK A01 T02590175  RH  060%=      5-min Rain = 0
KPD4 190852Z 18016KT 26/18 A2985 RMK A01 T02590175  RH  060%=      5-min Rain = 0
KPD4 190853Z 19014KT 26/18 A2985 RMK A01 T02600175  RH  059%=      5-min Rain = 0
KPD4 190854Z 18015KT 26/18 A2984 RMK A01 T02600175  RH  059%=      5-min Rain = 0
KPD4 190855Z 19014KT 26/17 A2984 RMK A01 T02600174  RH  059%=      5-min Rain = 0
KPD4 190856Z 19013KT 26/18 A2985 RMK A01 T02600175  RH  059%=      5-min Rain = 0
KPD4 190857Z 19012KT 26/18 A2985 RMK A01 T02600175  RH  060%=      5-min Rain = 0
KPD4 190858Z 19013KT 26/18 A2985 RMK A01 T02590175  RH  060%=      5-min Rain = 0
KPD4 190859Z 18015KT 26/18 A2985 RMK A01 T02590175  RH  060%=      5-min Rain = 0
KPD4 190900Z 19014KT 26/17 A2985 RMK A01 T02590174  RH  060%=      5-min Rain = 0
KPD4 190901Z 19013KT 26/18 A2985 RMK A01 T02590175  RH  060%=      5-min Rain = 0
KPD4 190902Z 19014KT 26/18 A2985 RMK A01 T02590175  RH  060%=      5-min Rain = 0
KPD4 190903Z 19014KT 26/18 A2985 RMK A01 T02590175  RH  060%=      5-min Rain = 0
KPD4 190904Z 18011KT 26/18 A2985 RMK A01 T02590175  RH  060%=      5-min Rain = 0
KPD4 190905Z 19013KT 26/18 A2985 RMK A01 T02580175  RH  060%=      5-min Rain = 0
KPD4 190906Z 19013KT 26/18 A2985 RMK A01 T02580175  RH  060%=      5-min Rain = 0
KPD4 190907Z 19012KT 26/18 A2985 RMK A01 T02580175  RH  060%=      5-min Rain = 0
KPD4 190908Z 19013KT 26/18 A2985 RMK A01 T02570175  RH  060%=      5-min Rain = 0
KPD4 190909Z 19013KT 26/18 A2985 RMK A01 T02570175  RH  060%=      5-min Rain = 0
KPD4 190910Z 19011KT 26/18 A2985 RMK A01 T02570175  RH  060%=      5-min Rain = 0
KPD4 190911Z 19013KT 26/18 A2985 RMK A01 T02570175  RH  060%=      5-min Rain = 0
KPD4 190912Z 19012KT 26/18 A2985 RMK A01 T02560175  RH  061%=      5-min Rain = 0
KPD4 190913Z 19010KT 26/17 A2985 RMK A01 T02560174  RH  061%=      5-min Rain = 0
KPD4 190914Z 19013KT 26/17 A2985 RMK A01 T02560174  RH  061%=      5-min Rain = 0
KPD4 190915Z 19013KT 26/17 A2985 RMK A01 T02550174  RH  061%=      5-min Rain = 0
KPD4 190916Z 19012KT 26/17 A2985 RMK A01 T02550174  RH  061%=      5-min Rain = 0
KPD4 190917Z 19014KT 26/17 A2985 RMK A01 T02550174  RH  061%=      5-min Rain = 0
KPD4 190918Z 19012G17KT 26/17 A2985 RMK A01 T02560174  RH  061%=      5-min Rain = 0
KPD4 190919Z 19010KT 26/17 A2985 RMK A01 T02560174  RH  061%=      5-min Rain = 0
KPD4 190920Z 19011KT 26/17 A2985 RMK A01 T02550174  RH  061%=      5-min Rain = 0
KPD4 190921Z 19011KT 25/17 A2985 RMK A01 T02540174  RH  061%=      5-min Rain = 0
KPD4 190922Z 19012KT 25/17 A2985 RMK A01 T02540174  RH  061%=      5-min Rain = 0
KPD4 190923Z 20011KT 25/17 A2985 RMK A01 T02540174  RH  061%=      5-min Rain = 0
KPD4 190924Z 19011KT 25/17 A2985 RMK A01 T02530174  RH  061%=      5-min Rain = 0
KPD4 190925Z 19011KT 25/17 A2985 RMK A01 T02530174  RH  062%=      5-min Rain = 0
KPD4 190926Z 19013KT 25/17 A2985 RMK A01 T02530174  RH  062%=      5-min Rain = 0
KPD4 190927Z 19012KT 25/17 A2985 RMK A01 T02530174  RH  062%=      5-min Rain = 0
KPD4 190928Z 19013KT 25/17 A2985 RMK A01 T02530174  RH  062%=      5-min Rain = 0
KPD4 190929Z 19012KT 25/17 A2985 RMK A01 T02530174  RH  061%=      5-min Rain = 0
KPD4 190930Z 19011KT 25/17 A2985 RMK A01 T02530174  RH  061%=      5-min Rain = 0
KPD4 190931Z 19011KT 25/17 A2985 RMK A01 T02530174  RH  061%=      5-min Rain = 0
KPD4 190932Z 19011KT 25/17 A2985 RMK A01 T02530174  RH  062%=      5-min Rain = 0
KPD4 190933Z 19014KT 25/17 A2985 RMK A01 T02520173  RH  062%=      5-min Rain = 0
KPD4 190934Z 19012KT 25/17 A2985 RMK A01 T02530174  RH  062%=      5-min Rain = 0
KPD4 190935Z 19010KT 25/17 A2985 RMK A01 T02530174  RH  061%=      5-min Rain = 0
KPD4 190936Z 19011KT 25/17 A2985 RMK A01 T02520174  RH  062%=      5-min Rain = 0
KPD4 190937Z 19011KT 25/17 A2985 RMK A01 T02520174  RH  062%=      5-min Rain = 0
KPD4 190938Z 19010KT 25/17 A2985 RMK A01 T02520174  RH  062%=      5-min Rain = 0
KPD4 190939Z 19011KT 25/17 A2985 RMK A01 T02510173  RH  062%=      5-min Rain = 0
KPD4 190940Z 20012KT 25/17 A2985 RMK A01 T02500173  RH  062%=      5-min Rain = 0
KPD4 190941Z 19011KT 25/17 A2985 RMK A01 T02500173  RH  062%=      5-min Rain = 0
KPD4 190942Z 19012KT 25/17 A2985 RMK A01 T02500173  RH  062%=      5-min Rain = 0
KPD4 190943Z 19012KT 25/17 A2985 RMK A01 T02500173  RH  062%=      5-min Rain = 0
KPD4 190944Z 19012KT 25/17 A2985 RMK A01 T02510173  RH  062%=      5-min Rain = 0
KPD4 190945Z 19010KT 25/17 A2985 RMK A01 T02510173  RH  062%=      5-min Rain = 0
KPD4 190946Z 19011KT 25/17 A2985 RMK A01 T02500173  RH  062%=      5-min Rain = 0
KPD4 190947Z 19011KT 25/17 A2985 RMK A01 T02500173  RH  062%=      5-min Rain = 0
KPD4 190948Z 19011KT 25/17 A2985 RMK A01 T02500173  RH  062%=      5-min Rain = 0
KPD4 190949Z 19011KT 25/17 A2985 RMK A01 T02510173  RH  062%=      5-min Rain = 0
KPD4 190950Z 19010KT 25/17 A2985 RMK A01 T02500173  RH  062%=      5-min Rain = 0
KPD4 190951Z 19012KT 25/17 A2985 RMK A01 T02490173  RH  062%=      5-min Rain = 0
KPD4 190952Z 19012KT 25/17 A2985 RMK A01 T02500173  RH  062%=      5-min Rain = 0
KPD4 190953Z 19010KT 25/17 A2985 RMK A01 T02490173  RH  062%=      5-min Rain = 0
KPD4 190954Z 19011KT 25/17 A2985 RMK A01 T02500173  RH  062%=      5-min Rain = 0
KPD4 190955Z 19011KT 25/17 A2985 RMK A01 T02490173  RH  062%=      5-min Rain = 0
KPD4 190956Z 19011KT 25/17 A2985 RMK A01 T02490173  RH  062%=      5-min Rain = 0
KPD4 190957Z 20011KT 25/17 A2985 RMK A01 T02490173  RH  062%=      5-min Rain = 0
KPD4 190958Z 19010KT 25/17 A2985 RMK A01 T02490173  RH  062%=      5-min Rain = 0
KPD4 190959Z 19011KT 25/17 A2985 RMK A01 T02490173  RH  062%=      5-min Rain = 0
KPD4 191000Z 19012KT 25/17 A2985 RMK A01 T02490172  RH  063%=      5-min Rain = 0
KPD4 191001Z 19012KT 25/17 A2985 RMK A01 T02490172  RH  062%=      5-min Rain = 0
KPD4 191002Z 19012KT 25/17 A2985 RMK A01 T02500172  RH  062%=      5-min Rain = 0
KPD4 191003Z 20012KT 25/17 A2985 RMK A01 T02500172  RH  062%=      5-min Rain = 0
KPD4 191004Z 19013KT 25/17 A2985 RMK A01 T02500172  RH  062%=      5-min Rain = 0
KPD4 191005Z 19011KT 25/17 A2985 RMK A01 T02500171  RH  062%=      5-min Rain = 0
KPD4 191006Z 20011KT 25/17 A2985 RMK A01 T02500171  RH  062%=      5-min Rain = 0
KPD4 191007Z 19013KT 25/17 A2985 RMK A01 T02500171  RH  062%=      5-min Rain = 0
KPD4 191008Z 19012KT 25/17 A2985 RMK A01 T02500171  RH  062%=      5-min Rain = 0
KPD4 191009Z 19012KT 25/17 A2985 RMK A01 T02500171  RH  061%=      5-min Rain = 0
KPD4 191010Z 19010KT 25/17 A2985 RMK A01 T02500171  RH  061%=      5-min Rain = 0
KPD4 191011Z 19012KT 25/17 A2985 RMK A01 T02500171  RH  061%=      5-min Rain = 0
KPD4 191012Z 19012KT 25/17 A2985 RMK A01 T02500170  RH  061%=      5-min Rain = 0
KPD4 191013Z 19012KT 25/17 A2985 RMK A01 T02500170  RH  061%=      5-min Rain = 0
KPD4 191014Z 19013KT 25/17 A2985 RMK A01 T02510170  RH  061%=      5-min Rain = 0
KPD4 191015Z 19012KT 25/17 A2985 RMK A01 T02510170  RH  061%=      5-min Rain = 0
KPD4 191016Z 19012KT 25/17 A2985 RMK A01 T02520170  RH  060%=      5-min Rain = 0
KPD4 191017Z 19012KT 25/17 A2985 RMK A01 T02520170  RH  060%=      5-min Rain = 0
KPD4 191018Z 19013KT 25/17 A2985 RMK A01 T02520170  RH  060%=      5-min Rain = 0
KPD4 191019Z 19013KT 25/17 A2985 RMK A01 T02520170  RH  060%=      5-min Rain = 0
KPD4 191020Z 19014KT 25/17 A2985 RMK A01 T02520169  RH  060%=      5-min Rain = 0
KPD4 191021Z 19012KT 25/17 A2985 RMK A01 T02520169  RH  060%=      5-min Rain = 0
KPD4 191022Z 19012KT 25/17 A2985 RMK A01 T02520169  RH  060%=      5-min Rain = 0
KPD4 191023Z 19012KT 25/17 A2985 RMK A01 T02520169  RH  060%=      5-min Rain = 0
KPD4 191024Z 19011KT 25/17 A2985 RMK A01 T02520169  RH  060%=      5-min Rain = 0
KPD4 191025Z 19011KT 25/17 A2985 RMK A01 T02510169  RH  060%=      5-min Rain = 0
KPD4 191026Z 19011KT 25/17 A2985 RMK A01 T02510169  RH  060%=      5-min Rain = 0
KPD4 191027Z 19012KT 25/17 A2985 RMK A01 T02500169  RH  061%=      5-min Rain = 0
KPD4 191028Z 19012KT 25/17 A2985 RMK A01 T02500169  RH  061%=      5-min Rain = 0
KPD4 191029Z 19013KT 25/17 A2985 RMK A01 T02510169  RH  060%=      5-min Rain = 0
KPD4 191030Z 19012KT 25/17 A2986 RMK A01 T02510169  RH  060%=      5-min Rain = 0
KPD4 191031Z 19012KT 25/17 A2986 RMK A01 T02510168  RH  060%=      5-min Rain = 0
KPD4 191032Z 19010KT 25/17 A2986 RMK A01 T02520169  RH  060%=      5-min Rain = 0
KPD4 191033Z 19011KT 25/17 A2986 RMK A01 T02510169  RH  060%=      5-min Rain = 0
KPD4 191034Z 19011KT 25/17 A2986 RMK A01 T02500169  RH  061%=      5-min Rain = 0
KPD4 191035Z 19013KT 25/17 A2986 RMK A01 T02500168  RH  060%=      5-min Rain = 0
KPD4 191036Z 19013KT 25/17 A2986 RMK A01 T02510168  RH  060%=      5-min Rain = 0
KPD4 191037Z 19013KT 25/17 A2986 RMK A01 T02520168  RH  060%=      5-min Rain = 0
KPD4 191038Z 19012KT 25/17 A2986 RMK A01 T02520168  RH  060%=      5-min Rain = 0
KPD4 191039Z 19012KT 25/17 A2986 RMK A01 T02520168  RH  060%=      5-min Rain = 0
KPD4 191040Z 19011KT 25/17 A2986 RMK A01 T02520168  RH  060%=      5-min Rain = 0
KPD4 191041Z 19012KT 25/17 A2986 RMK A01 T02520168  RH  060%=      5-min Rain = 0
KPD4 191042Z 19012KT 25/17 A2986 RMK A01 T02520168  RH  060%=      5-min Rain = 0
KPD4 191043Z 19012KT 25/17 A2986 RMK A01 T02510168  RH  060%=      5-min Rain = 0
KPD4 191044Z 19012KT 25/17 A2986 RMK A01 T02500167  RH  060%=      5-min Rain = 0
KPD4 191045Z 19012KT 25/17 A2986 RMK A01 T02500167  RH  060%=      5-min Rain = 0
KPD4 191046Z 19013KT 25/17 A2986 RMK A01 T02500167  RH  060%=      5-min Rain = 0
KPD4 191047Z 19012KT 25/17 A2986 RMK A01 T02500167  RH  060%=      5-min Rain = 0
KPD4 191048Z 19013KT 25/17 A2986 RMK A01 T02510167  RH  060%=      5-min Rain = 0
KPD4 191049Z 19013KT 25/17 A2986 RMK A01 T02510167  RH  060%=      5-min Rain = 0
KPD4 191050Z 19012KT 25/17 A2986 RMK A01 T02510167  RH  060%=      5-min Rain = 0
KPD4 191051Z 19010KT 25/17 A2986 RMK A01 T02510167  RH  060%=      5-min Rain = 0
KPD4 191052Z 19013KT 25/17 A2986 RMK A01 T02510167  RH  060%=      5-min Rain = 0
KPD4 191053Z 19013KT 25/17 A2986 RMK A01 T02510167  RH  060%=      5-min Rain = 0
KPD4 191054Z 19011KT 25/17 A2986 RMK A01 T02510167  RH  059%=      5-min Rain = 0
KPD4 191055Z 19014KT 25/17 A2986 RMK A01 T02510167  RH  059%=      5-min Rain = 0
KPD4 191056Z 19012KT 25/17 A2986 RMK A01 T02510166  RH  059%=      5-min Rain = 0
KPD4 191057Z 19013KT 25/17 A2986 RMK A01 T02520166  RH  059%=      5-min Rain = 0
KPD4 191058Z 19013KT 25/17 A2986 RMK A01 T02530166  RH  059%=      5-min Rain = 0
KPD4 191059Z 20013KT 25/17 A2986 RMK A01 T02520166  RH  059%=      5-min Rain = 0
KPD4 191100Z 19014KT 25/17 A2986 RMK A01 T02530166  RH  059%=      5-min Rain = 0
KPD4 191101Z 19012KT 25/17 A2986 RMK A01 T02530166  RH  059%=      5-min Rain = 0
KPD4 191102Z 19011KT 25/17 A2986 RMK A01 T02530166  RH  059%=      5-min Rain = 0
KPD4 191103Z 19011KT 25/17 A2986 RMK A01 T02520166  RH  059%=      5-min Rain = 0
KPD4 191104Z 19014KT 25/17 A2986 RMK A01 T02510166  RH  059%=      5-min Rain = 0
KPD4 191105Z 20013KT 25/17 A2986 RMK A01 T02510166  RH  059%=      5-min Rain = 0
KPD4 191106Z 20014KT 25/17 A2986 RMK A01 T02510166  RH  059%=      5-min Rain = 0
KPD4 191107Z 19013KT 25/17 A2986 RMK A01 T02520165  RH  059%=      5-min Rain = 0
KPD4 191108Z 20015KT 25/17 A2986 RMK A01 T02530166  RH  058%=      5-min Rain = 0
KPD4 191109Z 20014KT 25/17 A2986 RMK A01 T02530165  RH  058%=      5-min Rain = 0
KPD4 191110Z 20015KT 25/17 A2986 RMK A01 T02530165  RH  058%=      5-min Rain = 0
KPD4 191111Z 20013KT 25/17 A2986 RMK A01 T02530165  RH  058%=      5-min Rain = 0
KPD4 191112Z 19015KT 25/17 A2986 RMK A01 T02540165  RH  058%=      5-min Rain = 0
KPD4 191113Z 20014KT 25/17 A2986 RMK A01 T02540165  RH  058%=      5-min Rain = 0
KPD4 191114Z 20014KT 25/17 A2986 RMK A01 T02540165  RH  058%=      5-min Rain = 0
KPD4 191115Z 19015KT 25/17 A2986 RMK A01 T02540165  RH  058%=      5-min Rain = 0
KPD4 191116Z 19014KT 25/17 A2986 RMK A01 T02540165  RH  058%=      5-min Rain = 0
KPD4 191117Z 19015KT 26/17 A2986 RMK A01 T02550165  RH  057%=      5-min Rain = 0
KPD4 191118Z 20013KT 26/17 A2986 RMK A01 T02550165  RH  057%=      5-min Rain = 0
KPD4 191119Z 19012KT 26/17 A2986 RMK A01 T02550165  RH  057%=      5-min Rain = 0
KPD4 191120Z 19014KT 25/17 A2986 RMK A01 T02540165  RH  058%=      5-min Rain = 0
KPD4 191121Z 19015KT 25/17 A2986 RMK A01 T02530165  RH  058%=      5-min Rain = 0
KPD4 191122Z 20013KT 25/17 A2986 RMK A01 T02540165  RH  058%=      5-min Rain = 0
KPD4 191123Z 19013KT 25/17 A2986 RMK A01 T02530165  RH  058%=      5-min Rain = 0
KPD4 191124Z 20012G17KT 25/17 A2986 RMK A01 T02530165  RH  058%=      5-min Rain = 0
KPD4 191125Z 20013KT 25/17 A2986 RMK A01 T02530165  RH  058%=      5-min Rain = 0
KPD4 191126Z 19015KT 25/16 A2986 RMK A01 T02530164  RH  058%=      5-min Rain = 0
KPD4 191127Z 20014KT 25/16 A2986 RMK A01 T02540164  RH  058%=      5-min Rain = 0
KPD4 191128Z 19014KT 25/16 A2986 RMK A01 T02540164  RH  058%=      5-min Rain = 0
KPD4 191129Z 20014KT 25/17 A2986 RMK A01 T02540165  RH  058%=      5-min Rain = 0
KPD4 191130Z 19015KT 25/16 A2986 RMK A01 T02540164  RH  058%=      5-min Rain = 0
KPD4 191131Z 19013KT 25/16 A2986 RMK A01 T02540164  RH  058%=      5-min Rain = 0
KPD4 191132Z 20014KT 25/16 A2986 RMK A01 T02540164  RH  058%=      5-min Rain = 0
KPD4 191133Z 19014G19KT 25/17 A2986 RMK A01 T02540165  RH  058%=      5-min Rain = 0
KPD4 191134Z 20012KT 25/17 A2986 RMK A01 T02540165  RH  058%=      5-min Rain = 0
KPD4 191135Z 20014KT 25/17 A2986 RMK A01 T02530165  RH  058%=      5-min Rain = 0
KPD4 191136Z 19013KT 25/17 A2986 RMK A01 T02530165  RH  058%=      5-min Rain = 0
KPD4 191137Z 20014KT 25/17 A2986 RMK A01 T02530165  RH  058%=      5-min Rain = 0
KPD4 191138Z 19015KT 25/16 A2986 RMK A01 T02530164  RH  058%=      5-min Rain = 0
KPD4 191139Z 20016KT 25/16 A2986 RMK A01 T02540164  RH  057%=      5-min Rain = 0
KPD4 191140Z 19015KT 26/16 A2986 RMK A01 T02550164  RH  057%=      5-min Rain = 0
KPD4 191141Z 20013KT 26/16 A2986 RMK A01 T02550164  RH  057%=      5-min Rain = 0
KPD4 191142Z 20015G20KT 26/16 A2986 RMK A01 T02550164  RH  057%=      5-min Rain = 0
KPD4 191143Z 19013KT 26/16 A2986 RMK A01 T02550164  RH  057%=      5-min Rain = 0
KPD4 191144Z 20016KT 26/16 A2986 RMK A01 T02550163  RH  057%=      5-min Rain = 0
KPD4 191145Z 19014G19KT 26/16 A2986 RMK A01 T02560163  RH  056%=      5-min Rain = 0
KPD4 191146Z 20015KT 26/16 A2986 RMK A01 T02570163  RH  056%=      5-min Rain = 0
KPD4 191147Z 20016KT 26/16 A2986 RMK A01 T02570163  RH  056%=      5-min Rain = 0
KPD4 191148Z 20015KT 26/16 A2986 RMK A01 T02570163  RH  056%=      5-min Rain = 0
KPD4 191149Z 20016KT 26/16 A2986 RMK A01 T02570163  RH  056%=      5-min Rain = 0
KPD4 191150Z 20014KT 26/16 A2986 RMK A01 T02580163  RH  056%=      5-min Rain = 0
KPD4 191151Z 20014KT 26/16 A2986 RMK A01 T02570163  RH  056%=      5-min Rain = 0
KPD4 191152Z 20012KT 26/16 A2987 RMK A01 T02570163  RH  056%=      5-min Rain = 0
KPD4 191153Z 20015KT 26/16 A2986 RMK A01 T02570163  RH  056%=      5-min Rain = 0
KPD4 191154Z 20016KT 26/16 A2986 RMK A01 T02570162  RH  056%=      5-min Rain = 0
KPD4 191155Z 20013G18KT 26/16 A2987 RMK A01 T02580162  RH  055%=      5-min Rain = 0
KPD4 191156Z 20015KT 26/16 A2987 RMK A01 T02580163  RH  055%=      5-min Rain = 0
KPD4 191157Z 19014KT 26/16 A2987 RMK A01 T02580163  RH  056%=      5-min Rain = 0
KPD4 191158Z 21014G19KT 26/16 A2987 RMK A01 T02580162  RH  056%=      5-min Rain = 0
KPD4 191159Z 20014KT 26/16 A2987 RMK A01 T02570162  RH  056%=      5-min Rain = 0
KPD4 191200Z 20015KT 26/16 A2987 RMK A01 T02580162  RH  055%=      5-min Rain = 0
KPD4 191201Z 20016KT 26/16 A2987 RMK A01 T02580162  RH  055%=      5-min Rain = 0
KPD4 191202Z 20014G19KT 26/16 A2987 RMK A01 T02580161  RH  055%=      5-min Rain = 0
KPD4 191203Z 20015KT 26/16 A2987 RMK A01 T02590161  RH  055%=      5-min Rain = 0
KPD4 191204Z 19014KT 26/16 A2987 RMK A01 T02590162  RH  055%=      5-min Rain = 0
KPD4 191205Z 20014KT 26/16 A2987 RMK A01 T02590161  RH  055%=      5-min Rain = 0
KPD4 191206Z 20015KT 26/16 A2987 RMK A01 T02590162  RH  055%=      5-min Rain = 0
KPD4 191207Z 20014KT 26/16 A2987 RMK A01 T02590161  RH  055%=      5-min Rain = 0
KPD4 191208Z 20015KT 26/16 A2987 RMK A01 T02600161  RH  055%=      5-min Rain = 0
KPD4 191209Z 20017KT 26/16 A2987 RMK A01 T02600161  RH  054%=      5-min Rain = 0
KPD4 191210Z 20018KT 26/16 A2987 RMK A01 T02600161  RH  054%=      5-min Rain = 0
KPD4 191211Z 20019KT 26/16 A2987 RMK A01 T02610160  RH  054%=      5-min Rain = 0
KPD4 191212Z 20015KT 26/16 A2987 RMK A01 T02620161  RH  054%=      5-min Rain = 0
KPD4 191213Z 20016KT 26/16 A2987 RMK A01 T02620160  RH  054%=      5-min Rain = 0
KPD4 191214Z 20017KT 26/16 A2987 RMK A01 T02620160  RH  053%=      5-min Rain = 0
KPD4 191215Z 20014KT 26/16 A2987 RMK A01 T02620160  RH  053%=      5-min Rain = 0
KPD4 191216Z 20019KT 26/16 A2987 RMK A01 T02620161  RH  054%=      5-min Rain = 0
KPD4 191217Z 20018KT 26/16 A2987 RMK A01 T02620160  RH  053%=      5-min Rain = 0
KPD4 191218Z 20015KT 26/16 A2987 RMK A01 T02620160  RH  053%=      5-min Rain = 0
KPD4 191219Z 20014KT 26/16 A2987 RMK A01 T02620161  RH  054%=      5-min Rain = 0
KPD4 191220Z 20016KT 26/16 A2987 RMK A01 T02610161  RH  054%=      5-min Rain = 0
KPD4 191221Z 20016KT 26/16 A2987 RMK A01 T02620161  RH  054%=      5-min Rain = 0
KPD4 191222Z 20013KT 26/16 A2987 RMK A01 T02620160  RH  053%=      5-min Rain = 0
KPD4 191223Z 20014KT 26/16 A2987 RMK A01 T02620160  RH  053%=      5-min Rain = 0
KPD4 191224Z 20015KT 26/16 A2987 RMK A01 T02620161  RH  054%=      5-min Rain = 0
KPD4 191225Z 20016KT 26/16 A2987 RMK A01 T02620160  RH  053%=      5-min Rain = 0
KPD4 191226Z 20014G19KT 26/16 A2987 RMK A01 T02620160  RH  053%=      5-min Rain = 0
KPD4 191227Z 20014KT 26/16 A2987 RMK A01 T02620160  RH  053%=      5-min Rain = 0
KPD4 191228Z 20013KT 26/16 A2987 RMK A01 T02620160  RH  053%=      5-min Rain = 0
KPD4 191229Z 20015KT 26/16 A2987 RMK A01 T02620160  RH  053%=      5-min Rain = 0
KPD4 191230Z 20015KT 26/16 A2987 RMK A01 T02620160  RH  053%=      5-min Rain = 0
KPD4 191231Z 20015KT 26/16 A2987 RMK A01 T02630160  RH  053%=      5-min Rain = 0
KPD4 191232Z 20017KT 26/16 A2987 RMK A01 T02630160  RH  053%=      5-min Rain = 0
KPD4 191233Z 20016KT 26/16 A2987 RMK A01 T02640159  RH  053%=      5-min Rain = 0
KPD4 191234Z 20016KT 26/16 A2987 RMK A01 T02640159  RH  052%=      5-min Rain = 0
KPD4 191235Z 20015KT 27/16 A2987 RMK A01 T02650160  RH  053%=      5-min Rain = 0
KPD4 191236Z 20015G20KT 27/16 A2987 RMK A01 T02650160  RH  053%=      5-min Rain = 0
KPD4 191237Z 20015KT 27/16 A2987 RMK A01 T02650160  RH  052%=      5-min Rain = 0
KPD4 191238Z 20017KT 26/16 A2987 RMK A01 T02640159  RH  052%=      5-min Rain = 0
KPD4 191239Z 20017KT 27/16 A2987 RMK A01 T02650159  RH  052%=      5-min Rain = 0
KPD4 191240Z 20015KT 27/16 A2987 RMK A01 T02660160  RH  052%=      5-min Rain = 0
KPD4 191241Z 20016G23KT 27/16 A2987 RMK A01 T02650159  RH  052%=      5-min Rain = 0
KPD4 191242Z 20018KT 27/16 A2987 RMK A01 T02660159  RH  052%=      5-min Rain = 0
KPD4 191243Z 20018G23KT 27/16 A2987 RMK A01 T02660159  RH  052%=      5-min Rain = 0
KPD4 191244Z 20020KT 27/16 A2987 RMK A01 T02670158  RH  051%=      5-min Rain = 0
KPD4 191245Z 20016KT 27/16 A2987 RMK A01 T02670158  RH  051%=      5-min Rain = 0
KPD4 191246Z 20016KT 27/16 A2987 RMK A01 T02670159  RH  051%=      5-min Rain = 0
KPD4 191247Z 20015KT 27/16 A2987 RMK A01 T02670159  RH  052%=      5-min Rain = 0
KPD4 191248Z 20016KT 27/16 A2987 RMK A01 T02670160  RH  052%=      5-min Rain = 0
KPD4 191249Z 20017KT 27/16 A2987 RMK A01 T02670159  RH  051%=      5-min Rain = 0
KPD4 191250Z 20015KT 27/16 A2987 RMK A01 T02670159  RH  051%=      5-min Rain = 0
KPD4 191251Z 20016KT 27/16 A2987 RMK A01 T02670159  RH  051%=      5-min Rain = 0
KPD4 191252Z 20020KT 27/16 A2987 RMK A01 T02680159  RH  051%=      5-min Rain = 0
KPD4 191253Z 21017KT 27/16 A2987 RMK A01 T02680158  RH  051%=      5-min Rain = 0
KPD4 191254Z 20016KT 27/16 A2987 RMK A01 T02690159  RH  051%=      5-min Rain = 0
KPD4 191255Z 20018KT 27/16 A2987 RMK A01 T02690159  RH  051%=      5-min Rain = 0
KPD4 191256Z 20019KT 27/16 A2987 RMK A01 T02690158  RH  051%=      5-min Rain = 0
KPD4 191257Z 20017G22KT 27/16 A2987 RMK A01 T02690158  RH  051%=      5-min Rain = 0
KPD4 191258Z 20017KT 27/16 A2987 RMK A01 T02700158  RH  050%=      5-min Rain = 0
KPD4 191259Z 20016KT 27/16 A2987 RMK A01 T02700159  RH  050%=      5-min Rain = 0
KPD4 191300Z 20017KT 27/16 A2987 RMK A01 T02700158  RH  050%=      5-min Rain = 0
KPD4 191301Z 20016KT 27/16 A2987 RMK A01 T02710158  RH  050%=      5-min Rain = 0
KPD4 191302Z 20016G24KT 27/16 A2987 RMK A01 T02710159  RH  050%=      5-min Rain = 0
KPD4 191303Z 20019KT 27/16 A2987 RMK A01 T02710158  RH  050%=      5-min Rain = 0
KPD4 191304Z 20018KT 27/16 A2987 RMK A01 T02720158  RH  050%=      5-min Rain = 0
KPD4 191305Z 20019G24KT 27/16 A2987 RMK A01 T02720158  RH  050%=      5-min Rain = 0
KPD4 191306Z 20020G26KT 27/16 A2987 RMK A01 T02720158  RH  050%=      5-min Rain = 0
KPD4 191307Z 20017KT 27/16 A2987 RMK A01 T02720158  RH  050%=      5-min Rain = 0
KPD4 191308Z 20016G21KT 27/16 A2987 RMK A01 T02730159  RH  050%=      5-min Rain = 0
KPD4 191309Z 20018KT 27/16 A2987 RMK A01 T02730159  RH  050%=      5-min Rain = 0
KPD4 191310Z 21016G21KT 27/16 A2987 RMK A01 T02730159  RH  050%=      5-min Rain = 0
KPD4 191311Z 20015G22KT 27/16 A2987 RMK A01 T02730160  RH  050%=      5-min Rain = 0
KPD4 191312Z 21016G23KT 27/16 A2987 RMK A01 T02740160  RH  050%=      5-min Rain = 0
KPD4 191313Z 21018G25KT 28/16 A2987 RMK A01 T02750160  RH  050%=      5-min Rain = 0
KPD4 191314Z 20019KT 28/16 A2987 RMK A01 T02750158  RH  049%=      5-min Rain = 0
KPD4 191315Z 21018KT 28/16 A2987 RMK A01 T02750158  RH  049%=      5-min Rain = 0
KPD4 191316Z 20018G23KT 28/16 A2987 RMK A01 T02750159  RH  049%=      5-min Rain = 0
KPD4 191317Z 20023KT 28/16 A2987 RMK A01 T02760158  RH  049%=      5-min Rain = 0
KPD4 191318Z 19018KT 28/16 A2987 RMK A01 T02760158  RH  048%=      5-min Rain = 0
KPD4 191319Z 19015KT 28/16 A2987 RMK A01 T02760159  RH  049%=      5-min Rain = 0
KPD4 191320Z 20019KT 28/16 A2987 RMK A01 T02770160  RH  049%=      5-min Rain = 0
KPD4 191321Z 20018G23KT 28/16 A2986 RMK A01 T02770158  RH  048%=      5-min Rain = 0
KPD4 191322Z 20019KT 28/16 A2987 RMK A01 T02780159  RH  048%=      5-min Rain = 0
KPD4 191323Z 20019KT 28/16 A2987 RMK A01 T02780159  RH  048%=      5-min Rain = 0
KPD4 191324Z 20015G21KT 28/16 A2987 RMK A01 T02780159  RH  048%=      5-min Rain = 0
KPD4 191325Z 21020G25KT 28/16 A2987 RMK A01 T02780159  RH  048%=      5-min Rain = 0
KPD4 191326Z 20022G27KT 28/16 A2986 RMK A01 T02790158  RH  048%=      5-min Rain = 0
KPD4 191327Z 20016G22KT 28/16 A2987 RMK A01 T02790159  RH  048%=      5-min Rain = 0
KPD4 191328Z 20019G24KT 28/16 A2987 RMK A01 T02800159  RH  048%=      5-min Rain = 0
KPD4 191329Z 20019G27KT 28/16 A2987 RMK A01 T02800159  RH  048%=      5-min Rain = 0
KPD4 191330Z 21020KT 28/16 A2987 RMK A01 T02800159  RH  048%=      5-min Rain = 0
KPD4 191331Z 20018G23KT 28/16 A2987 RMK A01 T02810159  RH  048%=      5-min Rain = 0
KPD4 191332Z 20017KT 28/16 A2987 RMK A01 T02810160  RH  048%=      5-min Rain = 0
KPD4 191333Z 20017KT 28/16 A2987 RMK A01 T02810160  RH  048%=      5-min Rain = 0
KPD4 191334Z 20018KT 28/16 A2987 RMK A01 T02820160  RH  048%=      5-min Rain = 0
KPD4 191335Z 20018KT 28/16 A2987 RMK A01 T02820160  RH  047%=      5-min Rain = 0
KPD4 191336Z 20020KT 28/16 A2987 RMK A01 T02820160  RH  047%=      5-min Rain = 0
KPD4 191337Z 21021G27KT 28/16 A2987 RMK A01 T02820159  RH  047%=      5-min Rain = 0
KPD4 191338Z 20018KT 28/16 A2987 RMK A01 T02820159  RH  047%=      5-min Rain = 0
KPD4 191339Z 20020KT 28/16 A2987 RMK A01 T02830160  RH  047%=      5-min Rain = 0
KPD4 191340Z 21020KT 28/16 A2987 RMK A01 T02830159  RH  047%=      5-min Rain = 0
KPD4 191341Z 20019KT 28/16 A2987 RMK A01 T02840159  RH  047%=      5-min Rain = 0
KPD4 191342Z 20015KT 28/16 A2987 RMK A01 T02840161  RH  047%=      5-min Rain = 0
KPD4 191343Z 20018KT 29/16 A2987 RMK A01 T02850161  RH  047%=      5-min Rain = 0
KPD4 191344Z 20020KT 29/16 A2987 RMK A01 T02850160  RH  047%=      5-min Rain = 0
KPD4 191345Z 20019KT 29/16 A2987 RMK A01 T02850160  RH  047%=      5-min Rain = 0
KPD4 191346Z 20021KT 29/16 A2987 RMK A01 T02850160  RH  047%=      5-min Rain = 0
KPD4 191347Z 20023KT 29/16 A2987 RMK A01 T02860159  RH  046%=      5-min Rain = 0
KPD4 191348Z 21023KT 29/16 A2987 RMK A01 T02860159  RH  046%=      5-min Rain = 0
KPD4 191349Z 20018KT 29/16 A2987 RMK A01 T02860160  RH  046%=      5-min Rain = 0
KPD4 191350Z 20021KT 29/16 A2987 RMK A01 T02860161  RH  047%=      5-min Rain = 0
KPD4 191351Z 20022KT 29/16 A2987 RMK A01 T02860159  RH  046%=      5-min Rain = 0
KPD4 191352Z 20019KT 29/16 A2987 RMK A01 T02860160  RH  046%=      5-min Rain = 0
KPD4 191353Z 20018KT 29/16 A2987 RMK A01 T02870161  RH  047%=      5-min Rain = 0
KPD4 191354Z 20017KT 29/16 A2988 RMK A01 T02870162  RH  047%=      5-min Rain = 0
KPD4 191355Z 20021G26KT 29/16 A2987 RMK A01 T02880162  RH  046%=      5-min Rain = 0
KPD4 191356Z 21024KT 29/16 A2987 RMK A01 T02890160  RH  046%=      5-min Rain = 0
KPD4 191357Z 20022G27KT 29/16 A2987 RMK A01 T02890159  RH  045%=      5-min Rain = 0
KPD4 191358Z 20021G27KT 29/16 A2987 RMK A01 T02890160  RH  046%=      5-min Rain = 0
KPD4 191359Z 20021KT 29/16 A2987 RMK A01 T02890160  RH  046%=      5-min Rain = 0
KPD4 191400Z 20021KT 29/16 A2988 RMK A01 T02900161  RH  046%=      5-min Rain = 0
KPD4 191401Z 20019G25KT 29/16 A2988 RMK A01 T02900161  RH  046%=      5-min Rain = 0
KPD4 191402Z 21018KT 29/16 A2988 RMK A01 T02900161  RH  046%=      5-min Rain = 0
KPD4 191403Z 21016KT 29/16 A2988 RMK A01 T02920162  RH  046%=      5-min Rain = 0
KPD4 191404Z 21017KT 29/16 A2988 RMK A01 T02930164  RH  046%=      5-min Rain = 0
KPD4 191405Z 20020KT 29/16 A2988 RMK A01 T02940163  RH  045%=      5-min Rain = 0
KPD4 191406Z 20019KT 29/16 A2988 RMK A01 T02940162  RH  045%=      5-min Rain = 0
KPD4 191407Z 20018KT 29/16 A2988 RMK A01 T02930163  RH  045%=      5-min Rain = 0
KPD4 191408Z 21019KT 29/16 A2988 RMK A01 T02930162  RH  045%=      5-min Rain = 0
KPD4 191409Z 20020G25KT 29/16 A2988 RMK A01 T02940161  RH  045%=      5-min Rain = 0
KPD4 191410Z 20020KT 29/16 A2988 RMK A01 T02940162  RH  045%=      5-min Rain = 0
KPD4 191411Z 20024KT 29/16 A2988 RMK A01 T02940161  RH  045%=      5-min Rain = 0
KPD4 191412Z 20020KT 29/16 A2988 RMK A01 T02940161  RH  045%=      5-min Rain = 0
KPD4 191413Z 20022KT 29/16 A2988 RMK A01 T02940161  RH  044%=      5-min Rain = 0
KPD4 191414Z 20019G24KT 29/16 A2988 RMK A01 T02940161  RH  045%=      5-min Rain = 0
KPD4 191415Z 20020KT 29/16 A2988 RMK A01 T02940162  RH  045%=      5-min Rain = 0
KPD4 191416Z 20016KT 29/16 A2988 RMK A01 T02940161  RH  045%=      5-min Rain = 0
KPD4 191417Z 20015G21KT 30/16 A2988 RMK A01 T02950164  RH  045%=      5-min Rain = 0
KPD4 191418Z 20019KT 30/16 A2988 RMK A01 T02960163  RH  044%=      5-min Rain = 0
KPD4 191419Z 20018KT 30/16 A2988 RMK A01 T02970164  RH  045%=      5-min Rain = 0
KPD4 191420Z 21018KT 30/16 A2988 RMK A01 T02980163  RH  044%=      5-min Rain = 0
KPD4 191421Z 21022G27KT 30/16 A2988 RMK A01 T02990163  RH  044%=      5-min Rain = 0
KPD4 191422Z 21020KT 30/16 A2988 RMK A01 T02990162  RH  044%=      5-min Rain = 0
KPD4 191423Z 21020KT 30/16 A2988 RMK A01 T02990162  RH  044%=      5-min Rain = 0
KPD4 191424Z 21018KT 30/16 A2988 RMK A01 T02990162  RH  044%=      5-min Rain = 0
KPD4 191425Z 20018KT 30/16 A2988 RMK A01 T03000164  RH  044%=      5-min Rain = 0
KPD4 191426Z 20017KT 30/17 A2988 RMK A01 T03000165  RH  044%=      5-min Rain = 0
KPD4 191427Z 20017KT 30/16 A2988 RMK A01 T03000164  RH  044%=      5-min Rain = 0
KPD4 191428Z 22019G26KT 30/16 A2988 RMK A01 T03000164  RH  044%=      5-min Rain = 0
KPD4 191429Z 21022KT 30/16 A2988 RMK A01 T03010162  RH  043%=      5-min Rain = 0
KPD4 191430Z 22023G28KT 30/16 A2988 RMK A01 T03020162  RH  043%=      5-min Rain = 0
KPD4 191431Z 21022KT 30/16 A2988 RMK A01 T03010161  RH  043%=      5-min Rain = 0
KPD4 191432Z 20019KT 30/16 A2988 RMK A01 T03010164  RH  044%=      5-min Rain = 0
KPD4 191433Z 21021G27KT 30/16 A2988 RMK A01 T03010162  RH  043%=      5-min Rain = 0
KPD4 191434Z 21019G24KT 30/16 A2988 RMK A01 T03020163  RH  043%=      5-min Rain = 0
KPD4 191435Z 21015G20KT 30/16 A2988 RMK A01 T03030164  RH  043%=      5-min Rain = 0
KPD4 191436Z 20018KT 31/17 A2988 RMK A01 T03050165  RH  043%=      5-min Rain = 0
KPD4 191437Z 20021G26KT 31/16 A2988 RMK A01 T03060164  RH  042%=      5-min Rain = 0
KPD4 191438Z 21021KT 31/16 A2988 RMK A01 T03060163  RH  042%=      5-min Rain = 0
KPD4 191439Z 20016G22KT 31/16 A2988 RMK A01 T03050164  RH  043%=      5-min Rain = 0
KPD4 191440Z 20020KT 31/17 A2988 RMK A01 T03070165  RH  042%=      5-min Rain = 0
KPD4 191441Z 21018KT 31/16 A2988 RMK A01 T03070163  RH  042%=      5-min Rain = 0
KPD4 191442Z 20020KT 31/16 A2988 RMK A01 T03070163  RH  042%=      5-min Rain = 0
KPD4 191443Z 21020KT 31/16 A2988 RMK A01 T03060162  RH  042%=      5-min Rain = 0
KPD4 191444Z 21021G26KT 31/16 A2988 RMK A01 T03070163  RH  042%=      5-min Rain = 0
KPD4 191445Z 21018KT 31/16 A2988 RMK A01 T03070163  RH  042%=      5-min Rain = 0
KPD4 191446Z 21018KT 31/16 A2988 RMK A01 T03090164  RH  042%=      5-min Rain = 0
KPD4 191447Z 22019KT 31/16 A2988 RMK A01 T03090163  RH  041%=      5-min Rain = 0
KPD4 191448Z 21019KT 31/16 A2988 RMK A01 T03090163  RH  041%=      5-min Rain = 0
KPD4 191449Z 21022KT 31/16 A2988 RMK A01 T03090163  RH  041%=      5-min Rain = 0
KPD4 191450Z 21019KT 31/16 A2988 RMK A01 T03090163  RH  041%=      5-min Rain = 0
KPD4 191451Z 20016KT 31/17 A2988 RMK A01 T03090166  RH  042%=      5-min Rain = 0
KPD4 191452Z 20016KT 31/17 A2988 RMK A01 T03100166  RH  042%=      5-min Rain = 0
KPD4 191453Z 20019KT 31/17 A2988 RMK A01 T03110166  RH  042%=      5-min Rain = 0
KPD4 191454Z 20017G22KT 31/17 A2988 RMK A01 T03130166  RH  041%=      5-min Rain = 0
KPD4 191455Z 20023G28KT 31/17 A2988 RMK A01 T03130165  RH  041%=      5-min Rain = 0
KPD4 191456Z 20025KT 31/16 A2988 RMK A01 T03140161  RH  040%=      5-min Rain = 0
KPD4 191457Z 20022G27KT 31/16 A2988 RMK A01 T03110161  RH  040%=      5-min Rain = 0
KPD4 191458Z 20020KT 31/16 A2988 RMK A01 T03110162  RH  041%=      5-min Rain = 0
KPD4 191459Z 20022KT 31/16 A2988 RMK A01 T03110162  RH  040%=      5-min Rain = 0
KPD4 191500Z 20021KT 31/16 A2988 RMK A01 T03120161  RH  040%=      5-min Rain = 0
KPD4 191501Z 21019KT 31/16 A2988 RMK A01 T03120163  RH  041%=      5-min Rain = 0
KPD4 191502Z 20018G24KT 31/16 A2988 RMK A01 T03140164  RH  041%=      5-min Rain = 0
KPD4 191503Z 21020KT 32/16 A2988 RMK A01 T03150163  RH  040%=      5-min Rain = 0
KPD4 191504Z 20016KT 32/17 A2988 RMK A01 T03160167  RH  041%=      5-min Rain = 0
KPD4 191505Z 19016KT 32/17 A2988 RMK A01 T03170167  RH  041%=      5-min Rain = 0
KPD4 191506Z 20021KT 32/17 A2988 RMK A01 T03180167  RH  040%=      5-min Rain = 0
KPD4 191507Z 20022KT 32/16 A2988 RMK A01 T03180163  RH  039%=      5-min Rain = 0
KPD4 191508Z 20022G27KT 32/16 A2988 RMK A01 T03160162  RH  040%=      5-min Rain = 0
KPD4 191509Z 21022KT 32/16 A2988 RMK A01 T03170163  RH  040%=      5-min Rain = 0
KPD4 191510Z 22023KT 32/16 A2988 RMK A01 T03170161  RH  039%=      5-min Rain = 0
KPD4 191511Z 21021KT 32/16 A2988 RMK A01 T03170162  RH  039%=      5-min Rain = 0
KPD4 191512Z 21021KT 32/16 A2988 RMK A01 T03170162  RH  039%=      5-min Rain = 0
KPD4 191513Z 21020G26KT 32/16 A2988 RMK A01 T03180163  RH  039%=      5-min Rain = 0
KPD4 191514Z 20019G24KT 32/16 A2988 RMK A01 T03180163  RH  039%=      5-min Rain = 0
KPD4 191515Z 21021G26KT 32/16 A2988 RMK A01 T03190162  RH  039%=      5-min Rain = 0
KPD4 191516Z 20023G28KT 32/16 A2988 RMK A01 T03190161  RH  039%=      5-min Rain = 0
KPD4 191517Z 21024KT 32/16 A2988 RMK A01 T03180161  RH  039%=      5-min Rain = 0
KPD4 191518Z 21023G29KT 32/16 A2988 RMK A01 T03180160  RH  039%=      5-min Rain = 0
KPD4 191519Z 21022G28KT 32/16 A2988 RMK A01 T03180160  RH  039%=      5-min Rain = 0
KPD4 191520Z 21022KT 32/16 A2988 RMK A01 T03190162  RH  039%=      5-min Rain = 0
KPD4 191521Z 21023KT 32/16 A2988 RMK A01 T03200161  RH  038%=      5-min Rain = 0
KPD4 191522Z 21022KT 32/16 A2988 RMK A01 T03210161  RH  038%=      5-min Rain = 0
KPD4 191523Z 21019KT 32/16 A2988 RMK A01 T03210163  RH  039%=      5-min Rain = 0
KPD4 191524Z 21022KT 32/16 A2988 RMK A01 T03240163  RH  038%=      5-min Rain = 0
KPD4 191525Z 21021KT 32/16 A2988 RMK A01 T03240161  RH  038%=      5-min Rain = 0
KPD4 191526Z 21018G23KT 32/16 A2988 RMK A01 T03230162  RH  038%=      5-min Rain = 0
KPD4 191527Z 21016KT 32/16 A2988 RMK A01 T03240164  RH  038%=      5-min Rain = 0
KPD4 191528Z 19016KT 33/17 A2988 RMK A01 T03250167  RH  039%=      5-min Rain = 0
KPD4 191529Z 20017KT 33/17 A2988 RMK A01 T03260167  RH  039%=      5-min Rain = 0
KPD4 191530Z 19020KT 33/17 A2988 RMK A01 T03260165  RH  038%=      5-min Rain = 0
KPD4 191531Z 19022KT 32/16 A2988 RMK A01 T03240164  RH  038%=      5-min Rain = 0
KPD4 191532Z 19021KT 32/16 A2988 RMK A01 T03220163  RH  038%=      5-min Rain = 0
KPD4 191533Z 18022KT 32/16 A2988 RMK A01 T03210163  RH  039%=      5-min Rain = 0
KPD4 191534Z 19017G22KT 32/16 A2988 RMK A01 T03210164  RH  039%=      5-min Rain = 0
KPD4 191535Z 19019G24KT 32/17 A2988 RMK A01 T03240166  RH  039%=      5-min Rain = 0
KPD4 191536Z 20019KT 32/16 A2988 RMK A01 T03240164  RH  038%=      5-min Rain = 0
KPD4 191537Z 20021KT 32/16 A2988 RMK A01 T03240164  RH  038%=      5-min Rain = 0
KPD4 191538Z 19019G24KT 32/17 A2988 RMK A01 T03230165  RH  039%=      5-min Rain = 0
KPD4 191539Z 20019G24KT 32/16 A2988 RMK A01 T03230164  RH  038%=      5-min Rain = 0
KPD4 191540Z 20017KT 32/17 A2988 RMK A01 T03240165  RH  039%=      5-min Rain = 0
KPD4 191541Z 20017KT 33/17 A2988 RMK A01 T03250166  RH  039%=      5-min Rain = 0
KPD4 191542Z 19020G25KT 33/17 A2988 RMK A01 T03260166  RH  038%=      5-min Rain = 0
KPD4 191543Z 19023KT 33/16 A2988 RMK A01 T03260164  RH  038%=      5-min Rain = 0
KPD4 191544Z 19023KT 33/16 A2988 RMK A01 T03250163  RH  038%=      5-min Rain = 0
KPD4 191545Z 19020KT 33/16 A2988 RMK A01 T03250163  RH  038%=      5-min Rain = 0
KPD4 191546Z 20022KT 33/16 A2988 RMK A01 T03250162  RH  038%=      5-min Rain = 0
KPD4 191547Z 20019KT 32/16 A2988 RMK A01 T03240163  RH  038%=      5-min Rain = 0
KPD4 191548Z 20020KT 32/16 A2988 RMK A01 T03240163  RH  038%=      5-min Rain = 0
KPD4 191549Z 20019KT 32/16 A2988 RMK A01 T03240164  RH  038%=      5-min Rain = 0
KPD4 191550Z 20018KT 33/16 A2988 RMK A01 T03250164  RH  038%=      5-min Rain = 0
KPD4 191551Z 20020KT 33/17 A2988 RMK A01 T03250165  RH  038%=      5-min Rain = 0
KPD4 191552Z 20020KT 33/17 A2988 RMK A01 T03270165  RH  038%=      5-min Rain = 0
KPD4 191553Z 21019KT 33/16 A2988 RMK A01 T03270164  RH  038%=      5-min Rain = 0
KPD4 191554Z 20016G21KT 33/17 A2988 RMK A01 T03270165  RH  038%=      5-min Rain = 0
KPD4 191555Z 19021G26KT 33/16 A2988 RMK A01 T03270164  RH  038%=      5-min Rain = 0
KPD4 191556Z 18021KT 33/16 A2987 RMK A01 T03270163  RH  037%=      5-min Rain = 0
KPD4 191557Z 19018G23KT 33/16 A2988 RMK A01 T03260164  RH  038%=      5-min Rain = 0
KPD4 191558Z 20017KT 33/17 A2988 RMK A01 T03270167  RH  038%=      5-min Rain = 0
KPD4 191559Z 19016KT 33/17 A2988 RMK A01 T03290165  RH  037%=      5-min Rain = 0
KPD4 191600Z 21015KT 33/17 A2987 RMK A01 T03310168  RH  038%=      5-min Rain = 0
KPD4 191601Z 21016KT 33/17 A2987 RMK A01 T03330167  RH  037%=      5-min Rain = 0
KPD4 191602Z 21017G24KT 33/17 A2987 RMK A01 T03340168  RH  037%=      5-min Rain = 0
KPD4 191603Z 20020KT 34/17 A2987 RMK A01 T03350166  RH  036%=      5-min Rain = 0
KPD4 191604Z 21019KT 33/17 A2987 RMK A01 T03330165  RH  037%=      5-min Rain = 0
KPD4 191605Z 20018KT 33/17 A2988 RMK A01 T03330165  RH  037%=      5-min Rain = 0
KPD4 191606Z 19018KT 33/16 A2988 RMK A01 T03320164  RH  037%=      5-min Rain = 0
KPD4 191607Z 19018KT 33/16 A2988 RMK A01 T03320164  RH  037%=      5-min Rain = 0
KPD4 191608Z 19019G24KT 33/16 A2988 RMK A01 T03330163  RH  036%=      5-min Rain = 0
KPD4 191609Z 20017KT 33/16 A2988 RMK A01 T03330164  RH  036%=      5-min Rain = 0
KPD4 191610Z 20015KT 33/17 A2988 RMK A01 T03320165  RH  037%=      5-min Rain = 0
KPD4 191611Z 19017KT 34/17 A2988 RMK A01 T03350168  RH  037%=      5-min Rain = 0
KPD4 191612Z 19018KT 34/17 A2988 RMK A01 T03360165  RH  036%=      5-min Rain = 0
KPD4 191613Z 19017KT 34/17 A2988 RMK A01 T03350165  RH  036%=      5-min Rain = 0
KPD4 191614Z 19016G22KT 34/17 A2988 RMK A01 T03350167  RH  037%=      5-min Rain = 0
KPD4 191615Z 18021KT 34/16 A2988 RMK A01 T03360164  RH  036%=      5-min Rain = 0
KPD4 191616Z 19022KT 34/16 A2988 RMK A01 T03350163  RH  036%=      5-min Rain = 0
KPD4 191617Z 19019KT 33/16 A2988 RMK A01 T03340163  RH  036%=      5-min Rain = 0
KPD4 191618Z 19019KT 33/16 A2988 RMK A01 T03340164  RH  036%=      5-min Rain = 0
KPD4 191619Z 19021KT 34/16 A2988 RMK A01 T03360162  RH  035%=      5-min Rain = 0
KPD4 191620Z 19020KT 34/16 A2988 RMK A01 T03350162  RH  036%=      5-min Rain = 0
KPD4 191621Z 19018KT 33/16 A2988 RMK A01 T03340163  RH  036%=      5-min Rain = 0
KPD4 191622Z 19016KT 34/17 A2988 RMK A01 T03360165  RH  036%=      5-min Rain = 0
KPD4 191623Z 20019KT 34/17 A2988 RMK A01 T03400168  RH  036%=      5-min Rain = 0
KPD4 191624Z 21015KT 34/17 A2988 RMK A01 T03420165  RH  035%=      5-min Rain = 0
KPD4 191625Z 19015KT 34/17 A2988 RMK A01 T03430166  RH  035%=      5-min Rain = 0
KPD4 191626Z 19017KT 34/17 A2988 RMK A01 T03440166  RH  035%=      5-min Rain = 0
KPD4 191627Z 18019KT 34/16 A2988 RMK A01 T03420163  RH  034%=      5-min Rain = 0
KPD4 191628Z 18021KT 34/16 A2988 RMK A01 T03400163  RH  035%=      5-min Rain = 0
KPD4 191629Z 19019KT 34/16 A2988 RMK A01 T03400163  RH  035%=      5-min Rain = 0
KPD4 191630Z 19019KT 34/16 A2988 RMK A01 T03410162  RH  034%=      5-min Rain = 0
KPD4 191631Z 20019KT 34/16 A2988 RMK A01 T03410161  RH  034%=      5-min Rain = 0
KPD4 191632Z 20016KT 34/16 A2988 RMK A01 T03410160  RH  034%=      5-min Rain = 0
KPD4 191633Z 20016KT 34/16 A2988 RMK A01 T03390162  RH  035%=      5-min Rain = 0
KPD4 191634Z 20016KT 34/17 A2988 RMK A01 T03420167  RH  035%=      5-min Rain = 0
KPD4 191635Z 20017KT 35/16 A2988 RMK A01 T03460164  RH  034%=      5-min Rain = 0
KPD4 191636Z 19015G20KT 35/17 A2988 RMK A01 T03470168  RH  035%=      5-min Rain = 0
KPD4 191637Z 20018KT 35/16 A2988 RMK A01 T03490164  RH  033%=      5-min Rain = 0
KPD4 191638Z 21017G22KT 35/17 A2988 RMK A01 T03480165  RH  034%=      5-min Rain = 0
KPD4 191639Z 21015KT 35/16 A2988 RMK A01 T03470164  RH  034%=      5-min Rain = 0
KPD4 191640Z 21015G20KT 35/17 A2988 RMK A01 T03470167  RH  034%=      5-min Rain = 0
KPD4 191641Z 21020KT 35/16 A2988 RMK A01 T03490164  RH  033%=      5-min Rain = 0
KPD4 191642Z 20017KT 35/17 A2988 RMK A01 T03490165  RH  034%=      5-min Rain = 0
KPD4 191643Z 20019KT 35/17 A2988 RMK A01 T03490165  RH  034%=      5-min Rain = 0
KPD4 191644Z 19016KT 35/16 A2988 RMK A01 T03490164  RH  033%=      5-min Rain = 0
KPD4 191645Z 18015KT 35/16 A2988 RMK A01 T03470164  RH  034%=      5-min Rain = 0
KPD4 191646Z 19015KT 35/17 A2988 RMK A01 T03470166  RH  034%=      5-min Rain = 0
KPD4 191647Z 18015KT 35/17 A2988 RMK A01 T03510169  RH  034%=      5-min Rain = 0
KPD4 191648Z 19016G21KT 35/17 A2988 RMK A01 T03530167  RH  033%=      5-min Rain = 0
KPD4 191649Z 20018KT 35/17 A2988 RMK A01 T03530166  RH  033%=      5-min Rain = 0
KPD4 191650Z 20017KT 35/16 A2988 RMK A01 T03510164  RH  033%=      5-min Rain = 0
KPD4 191651Z 21018KT 35/16 A2988 RMK A01 T03500162  RH  033%=      5-min Rain = 0
KPD4 191652Z 20014KT 35/17 A2988 RMK A01 T03490165  RH  033%=      5-min Rain = 0
KPD4 191653Z 19016KT 35/17 A2988 RMK A01 T03500165  RH  033%=      5-min Rain = 0
KPD4 191654Z 19017KT 35/17 A2988 RMK A01 T03510167  RH  034%=      5-min Rain = 0
KPD4 191655Z 18016G21KT 35/17 A2988 RMK A01 T03510165  RH  033%=      5-min Rain = 0
KPD4 191656Z 18014KT 35/17 A2988 RMK A01 T03500167  RH  034%=      5-min Rain = 0
KPD4 191657Z 18014KT 35/17 A2988 RMK A01 T03520169  RH  034%=      5-min Rain = 0
KPD4 191658Z 18015G20KT 35/17 A2987 RMK A01 T03530169  RH  034%=      5-min Rain = 0
KPD4 191659Z 17017KT 35/17 A2987 RMK A01 T03540172  RH  034%=      5-min Rain = 0
KPD4 191700Z 17017KT 36/17 A2987 RMK A01 T03550170  RH  033%=      5-min Rain = 0
KPD4 191701Z 18013KT 35/17 A2987 RMK A01 T03520170  RH  034%=      5-min Rain = 0
KPD4 191702Z 17016KT 35/17 A2987 RMK A01 T03530169  RH  034%=      5-min Rain = 0
KPD4 191703Z 19019KT 35/17 A2987 RMK A01 T03520168  RH  034%=      5-min Rain = 0
KPD4 191704Z 19018KT 35/17 A2987 RMK A01 T03510166  RH  033%=      5-min Rain = 0
KPD4 191705Z 19019KT 35/17 A2987 RMK A01 T03510167  RH  033%=      5-min Rain = 0
KPD4 191706Z 19016KT 35/17 A2987 RMK A01 T03510165  RH  033%=      5-min Rain = 0
KPD4 191707Z 18014KT 35/17 A2987 RMK A01 T03480168  RH  034%=      5-min Rain = 0
KPD4 191708Z 17014G21KT 35/17 A2987 RMK A01 T03520171  RH  034%=      5-min Rain = 0
KPD4 191709Z 17016KT 36/17 A2987 RMK A01 T03550168  RH  033%=      5-min Rain = 0
KPD4 191710Z 17017G22KT 35/17 A2987 RMK A01 T03540169  RH  033%=      5-min Rain = 0
KPD4 191711Z 19018KT 36/17 A2987 RMK A01 T03550169  RH  033%=      5-min Rain = 0
KPD4 191712Z 19017KT 36/17 A2987 RMK A01 T03560170  RH  033%=      5-min Rain = 0
KPD4 191713Z 19015KT 36/17 A2987 RMK A01 T03570168  RH  033%=      5-min Rain = 0
KPD4 191714Z 19015G21KT 36/17 A2987 RMK A01 T03570169  RH  033%=      5-min Rain = 0
KPD4 191715Z 19017KT 36/17 A2987 RMK A01 T03560166  RH  032%=      5-min Rain = 0
KPD4 191716Z 19018KT 36/17 A2987 RMK A01 T03560167  RH  033%=      5-min Rain = 0
KPD4 191717Z 19014KT 36/17 A2987 RMK A01 T03560166  RH  032%=      5-min Rain = 0
KPD4 191718Z 18017G22KT 36/17 A2987 RMK A01 T03550168  RH  033%=      5-min Rain = 0
KPD4 191719Z 18019KT 36/16 A2987 RMK A01 T03560164  RH  032%=      5-min Rain = 0
KPD4 191720Z 19016KT 36/17 A2987 RMK A01 T03560167  RH  033%=      5-min Rain = 0
KPD4 191721Z 21016KT 36/17 A2987 RMK A01 T03590167  RH  032%=      5-min Rain = 0
KPD4 191722Z 19016KT 36/17 A2987 RMK A01 T03590167  RH  032%=      5-min Rain = 0
KPD4 191723Z 19017KT 36/17 A2987 RMK A01 T03580165  RH  032%=      5-min Rain = 0
KPD4 191724Z 20018KT 36/16 A2987 RMK A01 T03590164  RH  032%=      5-min Rain = 0
KPD4 191725Z 19018KT 36/16 A2987 RMK A01 T03610164  RH  031%=      5-min Rain = 0
KPD4 191726Z 19018KT 36/17 A2987 RMK A01 T03610165  RH  031%=      5-min Rain = 0
KPD4 191727Z 20018KT 36/16 A2987 RMK A01 T03600162  RH  031%=      5-min Rain = 0
KPD4 191728Z 20018KT 36/16 A2987 RMK A01 T03590161  RH  031%=      5-min Rain = 0
KPD4 191729Z 19017G22KT 36/16 A2987 RMK A01 T03580162  RH  031%=      5-min Rain = 0
KPD4 191730Z 19017KT 36/16 A2987 RMK A01 T03590162  RH  031%=      5-min Rain = 0
KPD4 191731Z 19017KT 36/16 A2987 RMK A01 T03600162  RH  031%=      5-min Rain = 0
KPD4 191732Z 18015KT 36/17 A2987 RMK A01 T03600165  RH  031%=      5-min Rain = 0
KPD4 191733Z 18015KT 36/17 A2987 RMK A01 T03630168  RH  032%=      5-min Rain = 0
KPD4 191734Z 19016KT 36/17 A2987 RMK A01 T03640165  RH  031%=      5-min Rain = 0
KPD4 191735Z 19017KT 36/16 A2987 RMK A01 T03620164  RH  031%=      5-min Rain = 0
KPD4 191736Z 20019KT 36/17 A2987 RMK A01 T03610166  RH  032%=      5-min Rain = 0
KPD4 191737Z 19016KT 36/17 A2987 RMK A01 T03620170  RH  032%=      5-min Rain = 0
KPD4 191738Z 18014KT 36/17 A2987 RMK A01 T03640169  RH  032%=      5-min Rain = 0
KPD4 191739Z 17016KT 37/17 A2987 RMK A01 T03650173  RH  032%=      5-min Rain = 0
KPD4 191740Z 19016KT 37/17 A2987 RMK A01 T03670171  RH  032%=      5-min Rain = 0
KPD4 191741Z 19021KT 37/17 A2987 RMK A01 T03670167  RH  031%=      5-min Rain = 0
KPD4 191742Z 18017G22KT 37/17 A2987 RMK A01 T03650166  RH  031%=      5-min Rain = 0
KPD4 191743Z 18015KT 36/17 A2987 RMK A01 T03640169  RH  032%=      5-min Rain = 0
KPD4 191744Z 17014KT 37/17 A2987 RMK A01 T03660170  RH  031%=      5-min Rain = 0
KPD4 191745Z 17015G20KT 37/17 A2987 RMK A01 T03680174  RH  032%=      5-min Rain = 0
KPD4 191746Z 18015KT 37/17 A2987 RMK A01 T03720171  RH  031%=      5-min Rain = 0
KPD4 191747Z 18016KT 37/17 A2987 RMK A01 T03690170  RH  031%=      5-min Rain = 0
KPD4 191748Z 18017KT 37/17 A2987 RMK A01 T03690168  RH  031%=      5-min Rain = 0
KPD4 191749Z 18017KT 37/17 A2987 RMK A01 T03670166  RH  031%=      5-min Rain = 0
KPD4 191750Z 17017G22KT 37/17 A2987 RMK A01 T03650170  RH  032%=      5-min Rain = 0
KPD4 191751Z 17019KT 37/17 A2986 RMK A01 T03670169  RH  031%=      5-min Rain = 0
KPD4 191752Z 17018KT 37/17 A2986 RMK A01 T03650167  RH  031%=      5-min Rain = 0
KPD4 191753Z 18020KT 37/17 A2986 RMK A01 T03650168  RH  031%=      5-min Rain = 0
KPD4 191754Z 19019KT 37/17 A2986 RMK A01 T03680169  RH  031%=      5-min Rain = 0
KPD4 191755Z 19021KT 37/17 A2986 RMK A01 T03680165  RH  030%=      5-min Rain = 0
KPD4 191756Z 19018KT 37/17 A2986 RMK A01 T03670165  RH  030%=      5-min Rain = 0
KPD4 191757Z 19015KT 37/17 A2986 RMK A01 T03670165  RH  030%=      5-min Rain = 0
KPD4 191758Z 18019KT 37/16 A2986 RMK A01 T03660163  RH  030%=      5-min Rain = 0
KPD4 191759Z 18020KT 37/16 A2986 RMK A01 T03660162  RH  030%=      5-min Rain = 0
KPD4 191800Z 19019KT 37/16 A2986 RMK A01 T03660163  RH  030%=      5-min Rain = 0
KPD4 191801Z 19017KT 37/16 A2986 RMK A01 T03660163  RH  030%=      5-min Rain = 0
KPD4 191802Z 18018KT 37/17 A2986 RMK A01 T03670167  RH  031%=      5-min Rain = 0
KPD4 191803Z 18017KT 37/17 A2986 RMK A01 T03680169  RH  031%=      5-min Rain = 0
KPD4 191804Z 18018KT 37/17 A2986 RMK A01 T03690168  RH  031%=      5-min Rain = 0
KPD4 191805Z 18019KT 37/17 A2986 RMK A01 T03700166  RH  030%=      5-min Rain = 0
KPD4 191806Z 19017KT 37/17 A2986 RMK A01 T03690165  RH  030%=      5-min Rain = 0
KPD4 191807Z 19015KT 37/17 A2986 RMK A01 T03690168  RH  031%=      5-min Rain = 0
KPD4 191808Z 19018KT 37/17 A2986 RMK A01 T03720171  RH  031%=      5-min Rain = 0
KPD4 191809Z 18014KT 37/17 A2986 RMK A01 T03720169  RH  030%=      5-min Rain = 0
KPD4 191810Z 19016KT 37/17 A2986 RMK A01 T03710169  RH  031%=      5-min Rain = 0
KPD4 191811Z 19017KT 37/17 A2986 RMK A01 T03720169  RH  030%=      5-min Rain = 0
KPD4 191812Z 18015KT 37/17 A2986 RMK A01 T03720170  RH  031%=      5-min Rain = 0
KPD4 191813Z 17017G22KT 37/17 A2986 RMK A01 T03730169  RH  030%=      5-min Rain = 0
KPD4 191814Z 17017KT 37/17 A2986 RMK A01 T03740171  RH  030%=      5-min Rain = 0
KPD4 191815Z 19019KT 38/17 A2986 RMK A01 T03750169  RH  030%=      5-min Rain = 0
KPD4 191816Z 19014KT 37/17 A2986 RMK A01 T03740168  RH  030%=      5-min Rain = 0
KPD4 191817Z 20018G23KT 37/17 A2986 RMK A01 T03740166  RH  029%=      5-min Rain = 0
KPD4 191818Z 19020KT 38/17 A2986 RMK A01 T03760166  RH  029%=      5-min Rain = 0
KPD4 191819Z 20017KT 38/17 A2986 RMK A01 T03750165  RH  029%=      5-min Rain = 0
KPD4 191820Z 20017KT 37/17 A2986 RMK A01 T03730167  RH  030%=      5-min Rain = 0
KPD4 191821Z 19016KT 37/17 A2986 RMK A01 T03730167  RH  030%=      5-min Rain = 0
KPD4 191822Z 20016G21KT 38/17 A2986 RMK A01 T03760168  RH  029%=      5-min Rain = 0
KPD4 191823Z 18015KT 38/17 A2986 RMK A01 T03780170  RH  030%=      5-min Rain = 0
KPD4 191824Z 17019KT 38/17 A2986 RMK A01 T03800170  RH  029%=      5-min Rain = 0
KPD4 191825Z 18019KT 38/17 A2986 RMK A01 T03790167  RH  029%=      5-min Rain = 0
KPD4 191826Z 18017G22KT 38/17 A2986 RMK A01 T03760167  RH  029%=      5-min Rain = 0
KPD4 191827Z 19018KT 38/17 A2986 RMK A01 T03760168  RH  030%=      5-min Rain = 0
KPD4 191828Z 18018KT 38/17 A2986 RMK A01 T03750166  RH  029%=      5-min Rain = 0
KPD4 191829Z 18017KT 38/17 A2986 RMK A01 T03750166  RH  029%=      5-min Rain = 0
KPD4 191830Z 18015KT 38/17 A2986 RMK A01 T03760166  RH  029%=      5-min Rain = 0
KPD4 191831Z 17017G24KT 38/17 A2985 RMK A01 T03790170  RH  029%=      5-min Rain = 0
KPD4 191832Z 17017KT 38/17 A2986 RMK A01 T03830171  RH  029%=      5-min Rain = 0
KPD4 191833Z 17017KT 38/17 A2985 RMK A01 T03830165  RH  028%=      5-min Rain = 0
KPD4 191834Z 17019KT 38/17 A2985 RMK A01 T03820166  RH  028%=      5-min Rain = 0
KPD4 191835Z 17018KT 38/16 A2985 RMK A01 T03810160  RH  027%=      5-min Rain = 0
KPD4 191836Z 18018G23KT 38/16 A2985 RMK A01 T03810163  RH  028%=      5-min Rain = 0
KPD4 191837Z 19017KT 38/16 A2985 RMK A01 T03810162  RH  028%=      5-min Rain = 0
KPD4 191838Z 20018KT 38/16 A2985 RMK A01 T03800162  RH  028%=      5-min Rain = 0
KPD4 191839Z 21017KT 38/16 A2985 RMK A01 T03800162  RH  028%=      5-min Rain = 0
KPD4 191840Z 20019KT 38/16 A2985 RMK A01 T03810163  RH  028%=      5-min Rain = 0
KPD4 191841Z 19017KT 38/16 A2985 RMK A01 T03810162  RH  028%=      5-min Rain = 0
KPD4 191842Z 19021G26KT 38/16 A2985 RMK A01 T03810161  RH  027%=      5-min Rain = 0
KPD4 191843Z 18016KT 38/16 A2985 RMK A01 T03800159  RH  027%=      5-min Rain = 0
KPD4 191844Z 19018KT 38/16 A2985 RMK A01 T03810159  RH  027%=      5-min Rain = 0
KPD4 191845Z 19017G22KT 38/16 A2985 RMK A01 T03840158  RH  026%=      5-min Rain = 0
KPD4 191846Z 19017KT 38/16 A2985 RMK A01 T03830160  RH  027%=      5-min Rain = 0
KPD4 191847Z 18016KT 38/16 A2985 RMK A01 T03840163  RH  027%=      5-min Rain = 0
KPD4 191848Z 17020KT 39/16 A2985 RMK A01 T03870159  RH  026%=      5-min Rain = 0
KPD4 191849Z 17018KT 39/16 A2985 RMK A01 T03870160  RH  026%=      5-min Rain = 0
KPD4 191850Z 18020G25KT 39/16 A2985 RMK A01 T03860157  RH  026%=      5-min Rain = 0
KPD4 191851Z 18021G26KT 38/16 A2985 RMK A01 T03840156  RH  026%=      5-min Rain = 0
KPD4 191852Z 18017KT 38/16 A2985 RMK A01 T03810158  RH  027%=      5-min Rain = 0
KPD4 191853Z 19019G24KT 38/16 A2985 RMK A01 T03810160  RH  027%=      5-min Rain = 0
KPD4 191854Z 19020G25KT 38/16 A2985 RMK A01 T03810157  RH  027%=      5-min Rain = 0
KPD4 191855Z 19020KT 38/16 A2985 RMK A01 T03820159  RH  027%=      5-min Rain = 0
KPD4 191856Z 19020KT 38/16 A2985 RMK A01 T03820164  RH  028%=      5-min Rain = 0
KPD4 191857Z 18017G22KT 38/16 A2985 RMK A01 T03820164  RH  028%=      5-min Rain = 0
KPD4 191858Z 18015KT 38/17 A2985 RMK A01 T03830169  RH  029%=      5-min Rain = 0
KPD4 191859Z 18014KT 39/17 A2985 RMK A01 T03870171  RH  028%=      5-min Rain = 0
KPD4 191900Z 17018G23KT 39/17 A2985 RMK A01 T03910167  RH  027%=      5-min Rain = 0
KPD4 191901Z 17019KT 39/17 A2985 RMK A01 T03890165  RH  027%=      5-min Rain = 0
KPD4 191902Z 17017KT 39/16 A2985 RMK A01 T03850164  RH  027%=      5-min Rain = 0
KPD4 191903Z 17014KT 38/17 A2985 RMK A01 T03830169  RH  029%=      5-min Rain = 0
KPD4 191904Z 19015KT 39/17 A2985 RMK A01 T03870168  RH  028%=      5-min Rain = 0
KPD4 191905Z 19018G23KT 39/17 A2985 RMK A01 T03900165  RH  027%=      5-min Rain = 0
KPD4 191906Z 18018KT 39/16 A2985 RMK A01 T03900164  RH  027%=      5-min Rain = 0
KPD4 191907Z 17017KT 39/17 A2985 RMK A01 T03890168  RH  027%=      5-min Rain = 0
KPD4 191908Z 19016KT 39/17 A2985 RMK A01 T03910169  RH  027%=      5-min Rain = 0
KPD4 191909Z 18019KT 39/17 A2985 RMK A01 T03930165  RH  026%=      5-min Rain = 0
KPD4 191910Z 18016G21KT 39/17 A2985 RMK A01 T03910167  RH  027%=      5-min Rain = 0
KPD4 191911Z 17018KT 39/17 A2985 RMK A01 T03900167  RH  027%=      5-min Rain = 0
KPD4 191912Z 16022G27KT 39/17 A2985 RMK A01 T03860166  RH  027%=      5-min Rain = 0
KPD4 191913Z 16022KT 38/17 A2985 RMK A01 T03830165  RH  028%=      5-min Rain = 0
KPD4 191914Z 17019KT 38/17 A2985 RMK A01 T03810166  RH  028%=      5-min Rain = 0
KPD4 191915Z 16021KT 38/17 A2985 RMK A01 T03810165  RH  028%=      5-min Rain = 0
KPD4 191916Z 16020KT 38/16 A2985 RMK A01 T03810164  RH  028%=      5-min Rain = 0
KPD4 191917Z 15016G23KT 38/17 A2985 RMK A01 T03820169  RH  029%=      5-min Rain = 0
KPD4 191918Z 15020KT 38/17 A2985 RMK A01 T03830168  RH  028%=      5-min Rain = 0
KPD4 191919Z 16020KT 38/17 A2985 RMK A01 T03820167  RH  028%=      5-min Rain = 0
KPD4 191920Z 18021G26KT 38/17 A2985 RMK A01 T03810166  RH  028%=      5-min Rain = 0
KPD4 191921Z 17021KT 38/16 A2985 RMK A01 T03810164  RH  028%=      5-min Rain = 0
KPD4 191922Z 16020G25KT 38/16 A2985 RMK A01 T03810164  RH  028%=      5-min Rain = 0
KPD4 191923Z 16019G24KT 38/16 A2985 RMK A01 T03820164  RH  028%=      5-min Rain = 0
KPD4 191924Z 15016KT 38/17 A2985 RMK A01 T03810168  RH  029%=      5-min Rain = 0
KPD4 191925Z 16015G23KT 39/17 A2985 RMK A01 T03850174  RH  029%=      5-min Rain = 0
KPD4 191926Z 16019KT 39/17 A2985 RMK A01 T03870169  RH  028%=      5-min Rain = 0
KPD4 191927Z 16022KT 39/17 A2985 RMK A01 T03870169  RH  028%=      5-min Rain = 0
KPD4 191928Z 15020KT 39/17 A2985 RMK A01 T03850168  RH  028%=      5-min Rain = 0
KPD4 191929Z 16019G26KT 39/17 A2985 RMK A01 T03850171  RH  029%=      5-min Rain = 0
KPD4 191930Z 16019KT 39/17 A2985 RMK A01 T03860165  RH  028%=      5-min Rain = 0
KPD4 191931Z 16016G24KT 38/17 A2985 RMK A01 T03840169  RH  028%=      5-min Rain = 0
KPD4 191932Z 16020KT 39/17 A2985 RMK A01 T03860166  RH  028%=      5-min Rain = 0
KPD4 191933Z 17022KT 39/16 A2984 RMK A01 T03860163  RH  027%=      5-min Rain = 0
KPD4 191934Z 17021G26KT 39/17 A2985 RMK A01 T03860165  RH  027%=      5-min Rain = 0
KPD4 191935Z 15022KT 39/17 A2984 RMK A01 T03860167  RH  028%=      5-min Rain = 0
KPD4 191936Z 15020KT 38/16 A2984 RMK A01 T03840164  RH  027%=      5-min Rain = 0
KPD4 191937Z 17020G25KT 38/17 A2984 RMK A01 T03830165  RH  028%=      5-min Rain = 0
KPD4 191938Z 17022G30KT 38/16 A2984 RMK A01 T03830163  RH  027%=      5-min Rain = 0
KPD4 191939Z 16019G24KT 38/16 A2984 RMK A01 T03830164  RH  028%=      5-min Rain = 0
KPD4 191940Z 16018G27KT 39/17 A2984 RMK A01 T03860170  RH  028%=      5-min Rain = 0
KPD4 191941Z 16022KT 39/17 A2984 RMK A01 T03880167  RH  027%=      5-min Rain = 0
KPD4 191942Z 17016KT 39/17 A2984 RMK A01 T03850169  RH  028%=      5-min Rain = 0
KPD4 191943Z 16014G22KT 39/17 A2984 RMK A01 T03880173  RH  029%=      5-min Rain = 0
KPD4 191944Z 17021KT 39/17 A2984 RMK A01 T03910168  RH  027%=      5-min Rain = 0
KPD4 191945Z 17023G28KT 39/17 A2984 RMK A01 T03890166  RH  027%=      5-min Rain = 0
KPD4 191946Z 16020G27KT 39/17 A2984 RMK A01 T03880168  RH  028%=      5-min Rain = 0
KPD4 191947Z 16020G26KT 39/17 A2984 RMK A01 T03870165  RH  027%=      5-min Rain = 0
KPD4 191948Z 17017G22KT 39/17 A2984 RMK A01 T03870167  RH  028%=      5-min Rain = 0
KPD4 191949Z 15021G26KT 39/17 A2984 RMK A01 T03910173  RH  028%=      5-min Rain = 0
KPD4 191950Z 16018G24KT 39/17 A2984 RMK A01 T03910166  RH  027%=      5-min Rain = 0
KPD4 191951Z 16021KT 39/17 A2984 RMK A01 T03880167  RH  027%=      5-min Rain = 0
KPD4 191952Z 17024KT 39/17 A2984 RMK A01 T03880166  RH  027%=      5-min Rain = 0
KPD4 191953Z 18023KT 39/17 A2984 RMK A01 T03870165  RH  027%=      5-min Rain = 0
KPD4 191954Z 18019G25KT 39/17 A2984 RMK A01 T03860165  RH  027%=      5-min Rain = 0
KPD4 191955Z 16021KT 39/17 A2984 RMK A01 T03880165  RH  027%=      5-min Rain = 0
KPD4 191956Z 16024KT 39/16 A2984 RMK A01 T03870162  RH  027%=      5-min Rain = 0
KPD4 191957Z 16023G28KT 39/16 A2984 RMK A01 T03860164  RH  027%=      5-min Rain = 0
KPD4 191958Z 16022KT 39/16 A2983 RMK A01 T03860162  RH  027%=      5-min Rain = 0
KPD4 191959Z 16021KT 39/17 A2984 RMK A01 T03860165  RH  027%=      5-min Rain = 0
KPD4 192000Z 16016KT 39/17 A2984 RMK A01 T03890169  RH  028%=      5-min Rain = 0
KPD4 192001Z 18018KT 39/17 A2983 RMK A01 T03930171  RH  027%=      5-min Rain = 0
KPD4 192002Z 17021KT 39/17 A2983 RMK A01 T03940169  RH  027%=      5-min Rain = 0
KPD4 192003Z 17018KT 39/17 A2983 RMK A01 T03920169  RH  027%=      5-min Rain = 0
KPD4 192004Z 17019G24KT 39/17 A2983 RMK A01 T03910169  RH  027%=      5-min Rain = 0
KPD4 192005Z 16021G28KT 39/17 A2983 RMK A01 T03900167  RH  027%=      5-min Rain = 0
KPD4 192006Z 16025KT 39/17 A2983 RMK A01 T03890165  RH  027%=      5-min Rain = 0
KPD4 192007Z 16025G30KT 39/16 A2983 RMK A01 T03870164  RH  027%=      5-min Rain = 0
KPD4 192008Z 17023KT 39/16 A2983 RMK A01 T03850163  RH  027%=      5-min Rain = 0
KPD4 192009Z 17021KT 38/17 A2983 RMK A01 T03830165  RH  028%=      5-min Rain = 0
KPD4 192010Z 17021KT 38/16 A2983 RMK A01 T03840164  RH  028%=      5-min Rain = 0
KPD4 192011Z 17019KT 38/16 A2983 RMK A01 T03840164  RH  027%=      5-min Rain = 0
KPD4 192012Z 18017KT 38/17 A2983 RMK A01 T03840168  RH  028%=      5-min Rain = 0
KPD4 192013Z 16020G26KT 39/17 A2983 RMK A01 T03880171  RH  028%=      5-min Rain = 0
KPD4 192014Z 17017G23KT 39/17 A2983 RMK A01 T03900171  RH  028%=      5-min Rain = 0
KPD4 192015Z 17020KT 39/17 A2983 RMK A01 T03900170  RH  028%=      5-min Rain = 0
KPD4 192016Z 16021G27KT 39/17 A2983 RMK A01 T03890170  RH  028%=      5-min Rain = 0
KPD4 192017Z 17023KT 39/17 A2983 RMK A01 T03880168  RH  028%=      5-min Rain = 0
KPD4 192018Z 17020KT 39/17 A2983 RMK A01 T03870168  RH  028%=      5-min Rain = 0
KPD4 192019Z 17020G25KT 39/17 A2983 RMK A01 T03880168  RH  028%=      5-min Rain = 0
KPD4 192020Z 17023KT 39/17 A2983 RMK A01 T03890167  RH  027%=      5-min Rain = 0
KPD4 192021Z 17020KT 39/17 A2983 RMK A01 T03890165  RH  027%=      5-min Rain = 0
KPD4 192022Z 17019G24KT 39/17 A2983 RMK A01 T03900167  RH  027%=      5-min Rain = 0
KPD4 192023Z 17024KT 39/17 A2983 RMK A01 T03900167  RH  027%=      5-min Rain = 0
KPD4 192024Z 17023G28KT 39/17 A2983 RMK A01 T03890166  RH  027%=      5-min Rain = 0
KPD4 192025Z 17019KT 39/17 A2983 RMK A01 T03870168  RH  028%=      5-min Rain = 0
KPD4 192026Z 17021KT 39/17 A2983 RMK A01 T03880167  RH  027%=      5-min Rain = 0
KPD4 192027Z 18020KT 39/17 A2983 RMK A01 T03880167  RH  027%=      5-min Rain = 0
KPD4 192028Z 19024G30KT 39/17 A2983 RMK A01 T03890167  RH  027%=      5-min Rain = 0
KPD4 192029Z 18017KT 39/17 A2983 RMK A01 T03900168  RH  027%=      5-min Rain = 0
KPD4 192030Z 18020KT 39/17 A2983 RMK A01 T03930171  RH  027%=      5-min Rain = 0
KPD4 192031Z 18023G28KT 40/17 A2983 RMK A01 T03950168  RH  027%=      5-min Rain = 0
KPD4 192032Z 17020G25KT 39/17 A2983 RMK A01 T03930167  RH  027%=      5-min Rain = 0
KPD4 192033Z 16019G24KT 39/17 A2983 RMK A01 T03900169  RH  028%=      5-min Rain = 0
KPD4 192034Z 17022KT 39/17 A2983 RMK A01 T03900167  RH  027%=      5-min Rain = 0
KPD4 192035Z 18022KT 39/17 A2983 RMK A01 T03900167  RH  027%=      5-min Rain = 0
KPD4 192036Z 17019G25KT 39/17 A2983 RMK A01 T03900165  RH  027%=      5-min Rain = 0
KPD4 192037Z 17019KT 39/17 A2983 RMK A01 T03900166  RH  027%=      5-min Rain = 0
KPD4 192038Z 16016KT 39/17 A2983 RMK A01 T03890165  RH  027%=      5-min Rain = 0
KPD4 192039Z 18019KT 39/17 A2982 RMK A01 T03890165  RH  027%=      5-min Rain = 0
KPD4 192040Z 17021KT 39/17 A2982 RMK A01 T03900166  RH  027%=      5-min Rain = 0
KPD4 192041Z 17022G27KT 39/17 A2983 RMK A01 T03930167  RH  027%=      5-min Rain = 0
KPD4 192042Z 17025KT 39/16 A2982 RMK A01 T03920162  RH  026%=      5-min Rain = 0
KPD4 192043Z 17022G27KT 39/16 A2982 RMK A01 T03900163  RH  026%=      5-min Rain = 0
KPD4 192044Z 17024KT 39/16 A2982 RMK A01 T03900160  RH  026%=      5-min Rain = 0
KPD4 192045Z 17021KT 39/16 A2983 RMK A01 T03890161  RH  026%=      5-min Rain = 0
KPD4 192046Z 17017KT 39/16 A2983 RMK A01 T03880164  RH  027%=      5-min Rain = 0
KPD4 192047Z 17020G25KT 39/17 A2982 RMK A01 T03910165  RH  027%=      5-min Rain = 0
KPD4 192048Z 17020KT 39/17 A2982 RMK A01 T03920165  RH  026%=      5-min Rain = 0
KPD4 192049Z 17022G29KT 39/17 A2982 RMK A01 T03920167  RH  027%=      5-min Rain = 0
KPD4 192050Z 16023G29KT 39/16 A2982 RMK A01 T03920164  RH  026%=      5-min Rain = 0
KPD4 192051Z 16021KT 39/17 A2982 RMK A01 T03900165  RH  027%=      5-min Rain = 0
KPD4 192052Z 16021KT 39/17 A2982 RMK A01 T03900165  RH  027%=      5-min Rain = 0
KPD4 192053Z 16023G29KT 39/17 A2982 RMK A01 T03900165  RH  027%=      5-min Rain = 0
KPD4 192054Z 16020KT 39/17 A2982 RMK A01 T03900165  RH  027%=      5-min Rain = 0
KPD4 192055Z 17016KT 39/17 A2982 RMK A01 T03900168  RH  027%=      5-min Rain = 0
KPD4 192056Z 17021KT 39/17 A2982 RMK A01 T03930166  RH  027%=      5-min Rain = 0
KPD4 192057Z 17021KT 40/17 A2982 RMK A01 T03950166  RH  026%=      5-min Rain = 0
KPD4 192058Z 17022KT 39/16 A2982 RMK A01 T03940162  RH  026%=      5-min Rain = 0
KPD4 192059Z 18020G27KT 39/16 A2982 RMK A01 T03920160  RH  026%=      5-min Rain = 0
KPD4 192100Z 16021G28KT 39/16 A2982 RMK A01 T03920163  RH  026%=      5-min Rain = 0
KPD4 192101Z 16022G28KT 39/16 A2982 RMK A01 T03930163  RH  026%=      5-min Rain = 0
KPD4 192102Z 18021G26KT 39/16 A2982 RMK A01 T03920163  RH  026%=      5-min Rain = 0
KPD4 192103Z 17020KT 39/16 A2982 RMK A01 T03920163  RH  026%=      5-min Rain = 0
KPD4 192104Z 17024KT 39/16 A2982 RMK A01 T03920163  RH  026%=      5-min Rain = 0
KPD4 192105Z 18022KT 39/16 A2982 RMK A01 T03910163  RH  026%=      5-min Rain = 0
KPD4 192106Z 17022G28KT 39/16 A2982 RMK A01 T03890162  RH  026%=      5-min Rain = 0
KPD4 192107Z 17020G26KT 39/16 A2982 RMK A01 T03890161  RH  026%=      5-min Rain = 0
KPD4 192108Z 18021KT 39/16 A2982 RMK A01 T03900161  RH  026%=      5-min Rain = 0
KPD4 192109Z 18022KT 39/16 A2981 RMK A01 T03910160  RH  026%=      5-min Rain = 0
KPD4 192110Z 17019KT 39/16 A2981 RMK A01 T03910163  RH  026%=      5-min Rain = 0
KPD4 192111Z 17021G26KT 39/16 A2982 RMK A01 T03940160  RH  025%=      5-min Rain = 0
KPD4 192112Z 18023G28KT 39/16 A2981 RMK A01 T03940161  RH  026%=      5-min Rain = 0
KPD4 192113Z 18021KT 39/16 A2981 RMK A01 T03940160  RH  025%=      5-min Rain = 0
KPD4 192114Z 18023G28KT 39/16 A2981 RMK A01 T03930161  RH  026%=      5-min Rain = 0
KPD4 192115Z 18021KT 39/16 A2981 RMK A01 T03910161  RH  026%=      5-min Rain = 0
KPD4 192116Z 17022KT 39/16 A2981 RMK A01 T03920161  RH  026%=      5-min Rain = 0
KPD4 192117Z 17020KT 39/16 A2981 RMK A01 T03930160  RH  026%=      5-min Rain = 0
KPD4 192118Z 18021G28KT 39/16 A2981 RMK A01 T03930161  RH  026%=      5-min Rain = 0
KPD4 192119Z 16020G26KT 39/16 A2981 RMK A01 T03930162  RH  026%=      5-min Rain = 0
KPD4 192120Z 17020KT 39/16 A2981 RMK A01 T03930161  RH  026%=      5-min Rain = 0
KPD4 192121Z 17018G25KT 39/16 A2981 RMK A01 T03930162  RH  026%=      5-min Rain = 0
KPD4 192122Z 17022KT 39/16 A2981 RMK A01 T03940160  RH  025%=      5-min Rain = 0
KPD4 192123Z 17022G28KT 39/16 A2981 RMK A01 T03940159  RH  025%=      5-min Rain = 0
KPD4 192124Z 18019KT 40/16 A2981 RMK A01 T03950158  RH  025%=      5-min Rain = 0
KPD4 192125Z 17019G24KT 40/16 A2981 RMK A01 T03950162  RH  026%=      5-min Rain = 0
KPD4 192126Z 17020G25KT 40/16 A2981 RMK A01 T03960159  RH  025%=      5-min Rain = 0
KPD4 192127Z 16017G22KT 39/16 A2981 RMK A01 T03940161  RH  025%=      5-min Rain = 0
KPD4 192128Z 16017G22KT 39/16 A2981 RMK A01 T03930161  RH  026%=      5-min Rain = 0
KPD4 192129Z 16016KT 39/16 A2981 RMK A01 T03940163  RH  026%=      5-min Rain = 0
KPD4 192130Z 16021G27KT 39/16 A2981 RMK A01 T03940162  RH  026%=      5-min Rain = 0
KPD4 192131Z 17020G25KT 40/16 A2981 RMK A01 T03950158  RH  025%=      5-min Rain = 0
KPD4 192132Z 17020KT 40/16 A2981 RMK A01 T03950160  RH  025%=      5-min Rain = 0
KPD4 192133Z 16022G30KT 40/16 A2981 RMK A01 T03960160  RH  025%=      5-min Rain = 0
KPD4 192134Z 18023KT 40/16 A2981 RMK A01 T03960161  RH  025%=      5-min Rain = 0
KPD4 192135Z 19020G25KT 40/16 A2981 RMK A01 T03960160  RH  025%=      5-min Rain = 0
KPD4 192136Z 18020KT 40/16 A2981 RMK A01 T03960161  RH  025%=      5-min Rain = 0
KPD4 192137Z 18020KT 40/16 A2981 RMK A01 T03970158  RH  025%=      5-min Rain = 0
KPD4 192138Z 17018KT 40/16 A2981 RMK A01 T03960160  RH  025%=      5-min Rain = 0
KPD4 192139Z 16020G25KT 40/16 A2981 RMK A01 T03950159  RH  025%=      5-min Rain = 0
KPD4 192140Z 16025KT 39/16 A298 RMK A01 T03940157  RH  025%=      5-min Rain = 0
KPD4 192141Z 17023KT 39/16 A2981 RMK A01 T03940157  RH  025%=      5-min Rain = 0
KPD4 192142Z 16021G26KT 39/16 A2981 RMK A01 T03930157  RH  025%=      5-min Rain = 0
KPD4 192143Z 17020KT 39/16 A298 RMK A01 T03920158  RH  025%=      5-min Rain = 0
KPD4 192144Z 17019KT 39/16 A2981 RMK A01 T03940159  RH  025%=      5-min Rain = 0
KPD4 192145Z 16018KT 40/16 A2981 RMK A01 T03950159  RH  025%=      5-min Rain = 0
KPD4 192146Z 15021G30KT 40/16 A298 RMK A01 T03950160  RH  025%=      5-min Rain = 0
KPD4 192147Z 17025KT 39/16 A298 RMK A01 T03940157  RH  025%=      5-min Rain = 0
KPD4 192148Z 17025KT 39/16 A298 RMK A01 T03920155  RH  025%=      5-min Rain = 0
KPD4 192149Z 16023KT 39/15 A2981 RMK A01 T03910154  RH  025%=      5-min Rain = 0
KPD4 192150Z 16020KT 39/16 A298 RMK A01 T03910155  RH  025%=      5-min Rain = 0
KPD4 192151Z 16016KT 39/16 A298 RMK A01 T03910156  RH  025%=      5-min Rain = 0
KPD4 192152Z 17021G26KT 39/16 A298 RMK A01 T03930158  RH  025%=      5-min Rain = 0
KPD4 192153Z 17018G24KT 39/16 A2981 RMK A01 T03940159  RH  025%=      5-min Rain = 0
KPD4 192154Z 17018G23KT 40/16 A298 RMK A01 T03950161  RH  026%=      5-min Rain = 0
KPD4 192155Z 17019G24KT 40/16 A298 RMK A01 T03960163  RH  026%=      5-min Rain = 0
KPD4 192156Z 18021KT 40/16 A298 RMK A01 T03970160  RH  025%=      5-min Rain = 0
KPD4 192157Z 18021KT 40/16 A298 RMK A01 T03970157  RH  025%=      5-min Rain = 0
KPD4 192158Z 17019KT 40/16 A298 RMK A01 T03960158  RH  025%=      5-min Rain = 0
KPD4 192159Z 17017G24KT 40/16 A298 RMK A01 T03950159  RH  025%=      5-min Rain = 0
KPD4 192200Z 16022G28KT 40/16 A298 RMK A01 T03950156  RH  025%=      5-min Rain = 0
KPD4 192201Z 17022KT 39/16 A298 RMK A01 T03930157  RH  025%=      5-min Rain = 0
KPD4 192202Z 18023G29KT 39/16 A298 RMK A01 T03930155  RH  025%=      5-min Rain = 0
KPD4 192203Z 17023G28KT 39/15 A298 RMK A01 T03940153  RH  024%=      5-min Rain = 0
KPD4 192204Z 17018G24KT 39/16 A298 RMK A01 T03930156  RH  025%=      5-min Rain = 0
KPD4 192205Z 18018G23KT 40/16 A298 RMK A01 T03960160  RH  025%=      5-min Rain = 0
KPD4 192206Z 18022KT 40/16 A298 RMK A01 T03970155  RH  024%=      5-min Rain = 0
KPD4 192207Z 17021KT 40/16 A298 RMK A01 T03960156  RH  024%=      5-min Rain = 0
KPD4 192208Z 17017KT 40/16 A298 RMK A01 T03960155  RH  024%=      5-min Rain = 0
KPD4 192209Z 17022G27KT 40/16 A298 RMK A01 T03950156  RH  025%=      5-min Rain = 0
KPD4 192210Z 17020G25KT 40/16 A298 RMK A01 T03950156  RH  025%=      5-min Rain = 0
KPD4 192211Z 16020KT 39/16 A298 RMK A01 T03940157  RH  025%=      5-min Rain = 0
KPD4 192212Z 17019KT 39/16 A298 RMK A01 T03940156  RH  025%=      5-min Rain = 0
KPD4 192213Z 17022KT 39/16 A298 RMK A01 T03940157  RH  025%=      5-min Rain = 0
KPD4 192214Z 18019G24KT 40/16 A298 RMK A01 T03950156  RH  025%=      5-min Rain = 0
KPD4 192215Z 17021KT 40/16 A298 RMK A01 T03950157  RH  025%=      5-min Rain = 0
KPD4 192216Z 16020G25KT 40/16 A298 RMK A01 T03950155  RH  024%=      5-min Rain = 0
KPD4 192217Z 17017KT 39/16 A298 RMK A01 T03940158  RH  025%=      5-min Rain = 0
KPD4 192218Z 16019KT 40/16 A298 RMK A01 T03960159  RH  025%=      5-min Rain = 0
KPD4 192219Z 15020G26KT 40/16 A298 RMK A01 T03960159  RH  025%=      5-min Rain = 0
KPD4 192220Z 16022KT 39/16 A298 RMK A01 T03940158  RH  025%=      5-min Rain = 0
KPD4 192221Z 17021KT 39/16 A298 RMK A01 T03930156  RH  025%=      5-min Rain = 0
KPD4 192222Z 17020KT 39/16 A298 RMK A01 T03930155  RH  025%=      5-min Rain = 0
KPD4 192223Z 16016KT 39/16 A298 RMK A01 T03930159  RH  025%=      5-min Rain = 0
KPD4 192224Z 16019KT 39/16 A298 RMK A01 T03940160  RH  025%=      5-min Rain = 0
KPD4 192225Z 18020G25KT 40/16 A298 RMK A01 T03950159  RH  025%=      5-min Rain = 0
KPD4 192226Z 18021G26KT 40/16 A2979 RMK A01 T03960155  RH  024%=      5-min Rain = 0
KPD4 192227Z 18023KT 40/15 A2979 RMK A01 T03970154  RH  024%=      5-min Rain = 0
KPD4 192228Z 19021KT 40/15 A2979 RMK A01 T03960153  RH  024%=      5-min Rain = 0
KPD4 192229Z 19023G30KT 40/15 A2979 RMK A01 T03960154  RH  024%=      5-min Rain = 0
KPD4 192230Z 17019KT 40/15 A2979 RMK A01 T03950154  RH  024%=      5-min Rain = 0
KPD4 192231Z 17017KT 40/16 A2979 RMK A01 T03970159  RH  025%=      5-min Rain = 0
KPD4 192232Z 17019KT 40/16 A2979 RMK A01 T03980157  RH  024%=      5-min Rain = 0
KPD4 192233Z 18020G25KT 40/16 A2979 RMK A01 T03980156  RH  024%=      5-min Rain = 0
KPD4 192234Z 17018G23KT 40/15 A2979 RMK A01 T03960154  RH  024%=      5-min Rain = 0
KPD4 192235Z 17021KT 40/15 A2979 RMK A01 T03960154  RH  024%=      5-min Rain = 0
KPD4 192236Z 17018G23KT 40/15 A2979 RMK A01 T03960154  RH  024%=      5-min Rain = 0
KPD4 192237Z 17024G29KT 40/15 A2979 RMK A01 T03950151  RH  024%=      5-min Rain = 0
KPD4 192238Z 16019G25KT 39/15 A2979 RMK A01 T03940151  RH  024%=      5-min Rain = 0
KPD4 192239Z 17016KT 39/15 A2979 RMK A01 T03940154  RH  024%=      5-min Rain = 0
KPD4 192240Z 17022KT 40/15 A2979 RMK A01 T03960154  RH  024%=      5-min Rain = 0
KPD4 192241Z 17016G22KT 40/15 A2979 RMK A01 T03960154  RH  024%=      5-min Rain = 0
KPD4 192242Z 17017G24KT 40/16 A2979 RMK A01 T03960157  RH  025%=      5-min Rain = 0
KPD4 192243Z 17018G24KT 40/16 A2979 RMK A01 T03970156  RH  024%=      5-min Rain = 0
KPD4 192244Z 16021KT 40/15 A2979 RMK A01 T03970152  RH  024%=      5-min Rain = 0
KPD4 192245Z 17019G27KT 40/15 A2979 RMK A01 T03950153  RH  024%=      5-min Rain = 0
KPD4 192246Z 17020G26KT 40/15 A2979 RMK A01 T03950154  RH  024%=      5-min Rain = 0
KPD4 192247Z 17023KT 40/15 A2979 RMK A01 T03950151  RH  024%=      5-min Rain = 0
KPD4 192248Z 16023KT 39/15 A2979 RMK A01 T03930149  RH  024%=      5-min Rain = 0
KPD4 192249Z 16021G26KT 39/15 A2979 RMK A01 T03920151  RH  024%=      5-min Rain = 0
KPD4 192250Z 17021G26KT 39/15 A2979 RMK A01 T03910152  RH  024%=      5-min Rain = 0
KPD4 192251Z 18018KT 39/15 A2979 RMK A01 T03930152  RH  024%=      5-min Rain = 0
KPD4 192252Z 18020KT 39/15 A2979 RMK A01 T03940151  RH  024%=      5-min Rain = 0
KPD4 192253Z 19019G25KT 40/15 A2979 RMK A01 T03950151  RH  024%=      5-min Rain = 0
KPD4 192254Z 17020KT 40/15 A2979 RMK A01 T03950153  RH  024%=      5-min Rain = 0
KPD4 192255Z 18018KT 40/15 A2979 RMK A01 T03970152  RH  024%=      5-min Rain = 0
KPD4 192256Z 17019KT 40/15 A2979 RMK A01 T03960150  RH  024%=      5-min Rain = 0
KPD4 192257Z 17017KT 39/15 A2979 RMK A01 T03940151  RH  024%=      5-min Rain = 0
KPD4 192258Z 17018KT 40/15 A2979 RMK A01 T03950153  RH  024%=      5-min Rain = 0
KPD4 192259Z 16018KT 40/16 A2979 RMK A01 T03960155  RH  024%=      5-min Rain = 0
KPD4 192300Z 17019KT 40/15 A2979 RMK A01 T03950154  RH  024%=      5-min Rain = 0
KPD4 192301Z 16018KT 39/16 A2978 RMK A01 T03940155  RH  025%=      5-min Rain = 0
KPD4 192302Z 16020KT 39/15 A2978 RMK A01 T03940153  RH  024%=      5-min Rain = 0
KPD4 192303Z 16016KT 39/16 A2978 RMK A01 T03930155  RH  025%=      5-min Rain = 0
KPD4 192304Z 16019G24KT 39/15 A2978 RMK A01 T03920154  RH  025%=      5-min Rain = 0
KPD4 192305Z 16020KT 39/15 A2978 RMK A01 T03910153  RH  025%=      5-min Rain = 0
KPD4 192306Z 16021KT 39/16 A2978 RMK A01 T03900155  RH  025%=      5-min Rain = 0
KPD4 192307Z 18017G22KT 39/15 A2978 RMK A01 T03900154  RH  025%=      5-min Rain = 0
KPD4 192308Z 17019G24KT 39/16 A2978 RMK A01 T03930155  RH  025%=      5-min Rain = 0
KPD4 192309Z 17024KT 39/15 A2978 RMK A01 T03940150  RH  024%=      5-min Rain = 0
KPD4 192310Z 17021G27KT 39/15 A2978 RMK A01 T03930149  RH  024%=      5-min Rain = 0
KPD4 192311Z 17020KT 39/15 A2978 RMK A01 T03930151  RH  024%=      5-min Rain = 0
KPD4 192312Z 17018G24KT 39/15 A2978 RMK A01 T03920150  RH  024%=      5-min Rain = 0
KPD4 192313Z 17021KT 39/15 A2978 RMK A01 T03930152  RH  024%=      5-min Rain = 0
KPD4 192314Z 17021KT 39/15 A2978 RMK A01 T03930148  RH  024%=      5-min Rain = 0
KPD4 192315Z 16018KT 39/15 A2978 RMK A01 T03920149  RH  024%=      5-min Rain = 0
KPD4 192316Z 17018G25KT 39/15 A2978 RMK A01 T03910152  RH  025%=      5-min Rain = 0
KPD4 192317Z 17021KT 39/15 A2978 RMK A01 T03920149  RH  024%=      5-min Rain = 0
KPD4 192318Z 17018KT 39/15 A2978 RMK A01 T03930149  RH  024%=      5-min Rain = 0
KPD4 192319Z 18022KT 39/15 A2978 RMK A01 T03930149  RH  024%=      5-min Rain = 0
KPD4 192320Z 18022G27KT 39/15 A2978 RMK A01 T03930149  RH  024%=      5-min Rain = 0
KPD4 192321Z 16016KT 39/15 A2978 RMK A01 T03930153  RH  024%=      5-min Rain = 0
KPD4 192322Z 17016KT 39/16 A2978 RMK A01 T03930155  RH  025%=      5-min Rain = 0
KPD4 192323Z 16018KT 39/15 A2978 RMK A01 T03940153  RH  024%=      5-min Rain = 0
KPD4 192324Z 16018KT 39/15 A2978 RMK A01 T03920153  RH  024%=      5-min Rain = 0
KPD4 192325Z 16018KT 39/15 A2978 RMK A01 T03900153  RH  025%=      5-min Rain = 0
KPD4 192326Z 16019KT 39/15 A2978 RMK A01 T03900152  RH  025%=      5-min Rain = 0
KPD4 192327Z 16022G27KT 39/15 A2978 RMK A01 T03900151  RH  024%=      5-min Rain = 0
KPD4 192328Z 16020KT 39/15 A2978 RMK A01 T03900149  RH  024%=      5-min Rain = 0
KPD4 192329Z 16015KT 39/15 A2978 RMK A01 T03890151  RH  025%=      5-min Rain = 0
KPD4 192330Z 16022KT 39/15 A2978 RMK A01 T03890149  RH  024%=      5-min Rain = 0
KPD4 192331Z 16019KT 39/15 A2978 RMK A01 T03890149  RH  024%=      5-min Rain = 0
KPD4 192332Z 16020KT 39/15 A2978 RMK A01 T03890149  RH  024%=      5-min Rain = 0
KPD4 192333Z 16021KT 39/15 A2978 RMK A01 T03880148  RH  024%=      5-min Rain = 0
KPD4 192334Z 16020G26KT 39/15 A2978 RMK A01 T03880148  RH  024%=      5-min Rain = 0
KPD4 192335Z 16019KT 39/15 A2978 RMK A01 T03880148  RH  024%=      5-min Rain = 0
KPD4 192336Z 16019KT 39/15 A2978 RMK A01 T03880150  RH  025%=      5-min Rain = 0
KPD4 192337Z 16021KT 39/15 A2978 RMK A01 T03880149  RH  024%=      5-min Rain = 0
KPD4 192338Z 16019KT 39/15 A2978 RMK A01 T03870150  RH  025%=      5-min Rain = 0
KPD4 192339Z 16020KT 39/15 A2978 RMK A01 T03870149  RH  025%=      5-min Rain = 0
KPD4 192340Z 16016G22KT 39/15 A2978 RMK A01 T03870150  RH  025%=      5-min Rain = 0
KPD4 192341Z 16018KT 39/15 A2978 RMK A01 T03870148  RH  024%=      5-min Rain = 0
KPD4 192342Z 17018G23KT 39/15 A2978 RMK A01 T03880149  RH  024%=      5-min Rain = 0
KPD4 192343Z 16022KT 39/16 A2978 RMK A01 T03880158  RH  026%=      5-min Rain = 0
KPD4 192344Z 16023KT 39/17 A2978 RMK A01 T03860168  RH  028%=      5-min Rain = 0
KPD4 192345Z 16022G27KT 38/17 A2978 RMK A01 T03830172  RH  029%=      5-min Rain = 0
KPD4 192346Z 16021G27KT 38/17 A2978 RMK A01 T03810174  RH  030%=      5-min Rain = 0
KPD4 192347Z 16019KT 38/17 A2978 RMK A01 T03800172  RH  030%=      5-min Rain = 0
KPD4 192348Z 16020KT 38/17 A2978 RMK A01 T03800174  RH  030%=      5-min Rain = 0
KPD4 192349Z 16017KT 38/18 A2978 RMK A01 T03800175  RH  030%=      5-min Rain = 0
KPD4 192350Z 16017G22KT 38/18 A2978 RMK A01 T03800176  RH  030%=      5-min Rain = 0
KPD4 192351Z 16018KT 38/18 A2978 RMK A01 T03800177  RH  031%=      5-min Rain = 0
KPD4 192352Z 16019G25KT 38/18 A2978 RMK A01 T03800176  RH  030%=      5-min Rain = 0
KPD4 192353Z 16017G22KT 38/18 A2978 RMK A01 T03790175  RH  030%=      5-min Rain = 0
KPD4 192354Z 15018KT 38/18 A2978 RMK A01 T03790176  RH  031%=      5-min Rain = 0
KPD4 192355Z 15021KT 38/18 A2978 RMK A01 T03780176  RH  031%=      5-min Rain = 0
KPD4 192356Z 15020KT 38/18 A2978 RMK A01 T03780177  RH  031%=      5-min Rain = 0
KPD4 192357Z 15020G25KT 38/18 A2978 RMK A01 T03770177  RH  031%=      5-min Rain = 0
KPD4 192358Z 15021KT 38/18 A2978 RMK A01 T03760177  RH  031%=      5-min Rain = 0
KPD4 192359Z 15021G26KT 38/18 A2978 RMK A01 T03760177  RH  031%=      5-min Rain = 0
KPD4 200000Z 16019G24KT 38/18 A2978 RMK A01 T03750178  RH  032%=      5-min Rain = 0
KPD4 200001Z 15019G24KT 38/18 A2978 RMK A01 T03750179  RH  032%=      5-min Rain = 0
KPD4 200002Z 15022KT 37/18 A2978 RMK A01 T03740177  RH  032%=      5-min Rain = 0
KPD4 200003Z 15021KT 37/18 A2978 RMK A01 T03740176  RH  031%=      5-min Rain = 0
KPD4 200004Z 16018KT 37/18 A2978 RMK A01 T03740177  RH  032%=      5-min Rain = 0
KPD4 200005Z 16020KT 37/18 A2978 RMK A01 T03730179  RH  032%=      5-min Rain = 0
KPD4 200006Z 15024KT 37/18 A2978 RMK A01 T03730176  RH  032%=      5-min Rain = 0
KPD4 200007Z 16022G28KT 37/17 A2978 RMK A01 T03730174  RH  031%=      5-min Rain = 0
KPD4 200008Z 16023KT 37/17 A2978 RMK A01 T03730173  RH  031%=      5-min Rain = 0
KPD4 200009Z 15018KT 37/18 A2978 RMK A01 T03730176  RH  032%=      5-min Rain = 0
KPD4 200010Z 15017G22KT 37/18 A2978 RMK A01 T03730177  RH  032%=      5-min Rain = 0
KPD4 200011Z 15018G25KT 37/18 A2978 RMK A01 T03730178  RH  032%=      5-min Rain = 0
KPD4 200012Z 16020G25KT 37/18 A2978 RMK A01 T03720175  RH  031%=      5-min Rain = 0
KPD4 200013Z 16019G25KT 37/18 A2978 RMK A01 T03730177  RH  032%=      5-min Rain = 0
KPD4 200014Z 15021G26KT 37/18 A2978 RMK A01 T03720176  RH  032%=      5-min Rain = 0
KPD4 200015Z 16018G24KT 37/18 A2978 RMK A01 T03710175  RH  032%=      5-min Rain = 0
KPD4 200016Z 16022KT 37/18 A2978 RMK A01 T03710175  RH  032%=      5-min Rain = 0
KPD4 200017Z 16019KT 37/18 A2978 RMK A01 T03710175  RH  032%=      5-min Rain = 0
KPD4 200018Z 16018G23KT 37/18 A2978 RMK A01 T03710176  RH  032%=      5-min Rain = 0
KPD4 200019Z 16021G26KT 37/17 A2978 RMK A01 T03710174  RH  032%=      5-min Rain = 0
KPD4 200020Z 16020G25KT 37/17 A2978 RMK A01 T03700174  RH  032%=      5-min Rain = 0
KPD4 200021Z 16018G23KT 37/18 A2978 RMK A01 T03700175  RH  032%=      5-min Rain = 0
KPD4 200022Z 15019G24KT 37/18 A2978 RMK A01 T03690177  RH  032%=      5-min Rain = 0
KPD4 200023Z 16020KT 37/17 A2978 RMK A01 T03690174  RH  032%=      5-min Rain = 0
KPD4 200024Z 16022KT 37/18 A2978 RMK A01 T03680175  RH  032%=      5-min Rain = 0
KPD4 200025Z 16022KT 37/17 A2978 RMK A01 T03680174  RH  032%=      5-min Rain = 0
KPD4 200026Z 16016G22KT 37/18 A2978 RMK A01 T03680175  RH  032%=      5-min Rain = 0
KPD4 200027Z 16017G22KT 37/18 A2978 RMK A01 T03670177  RH  033%=      5-min Rain = 0
KPD4 200028Z 15024KT 37/18 A2978 RMK A01 T03670175  RH  032%=      5-min Rain = 0
KPD4 200029Z 15021KT 37/17 A2978 RMK A01 T03660174  RH  032%=      5-min Rain = 0
KPD4 200030Z 16020G25KT 37/17 A2978 RMK A01 T03660174  RH  032%=      5-min Rain = 0
KPD4 200031Z 16018G23KT 37/18 A2978 RMK A01 T03660175  RH  033%=      5-min Rain = 0
KPD4 200032Z 15021KT 37/18 A2978 RMK A01 T03650175  RH  033%=      5-min Rain = 0
KPD4 200033Z 15017KT 37/18 A2978 RMK A01 T03650177  RH  033%=      5-min Rain = 0
KPD4 200034Z 15020KT 36/18 A2978 RMK A01 T03640176  RH  033%=      5-min Rain = 0
KPD4 200035Z 15018KT 36/18 A2978 RMK A01 T03640177  RH  033%=      5-min Rain = 0
KPD4 200036Z 16018KT 36/18 A2978 RMK A01 T03630176  RH  033%=      5-min Rain = 0
KPD4 200037Z 16021KT 36/18 A2978 RMK A01 T03630175  RH  033%=      5-min Rain = 0
KPD4 200038Z 16017G24KT 36/18 A2978 RMK A01 T03630175  RH  033%=      5-min Rain = 0
KPD4 200039Z 15019KT 36/18 A2978 RMK A01 T03620177  RH  034%=      5-min Rain = 0
KPD4 200040Z 16020KT 36/18 A2978 RMK A01 T03620175  RH  033%=      5-min Rain = 0
KPD4 200041Z 15022G28KT 36/17 A2978 RMK A01 T03610174  RH  033%=      5-min Rain = 0
KPD4 200042Z 15020KT 36/17 A2978 RMK A01 T03610173  RH  033%=      5-min Rain = 0
KPD4 200043Z 15021KT 36/17 A2978 RMK A01 T03610174  RH  033%=      5-min Rain = 0
KPD4 200044Z 16022G27KT 36/17 A2978 RMK A01 T03610173  RH  033%=      5-min Rain = 0
KPD4 200045Z 15020KT 36/17 A2978 RMK A01 T03610174  RH  033%=      5-min Rain = 0
KPD4 200046Z 15018G25KT 36/17 A2979 RMK A01 T03590174  RH  034%=      5-min Rain = 0
KPD4 200047Z 15016KT 36/18 A2979 RMK A01 T03570176  RH  034%=      5-min Rain = 0
KPD4 200048Z 15019KT 36/18 A2979 RMK A01 T03550175  RH  035%=      5-min Rain = 0
KPD4 200049Z 15021G27KT 36/18 A2979 RMK A01 T03550175  RH  035%=      5-min Rain = 0
KPD4 200050Z 15021G26KT 35/17 A2979 RMK A01 T03540174  RH  035%=      5-min Rain = 0
KPD4 200051Z 16021KT 35/17 A2979 RMK A01 T03540174  RH  035%=      5-min Rain = 0
KPD4 200052Z 15023KT 35/17 A2979 RMK A01 T03530174  RH  035%=      5-min Rain = 0
KPD4 200053Z 15022KT 35/17 A2979 RMK A01 T03530173  RH  034%=      5-min Rain = 0
KPD4 200054Z 15022KT 35/17 A2979 RMK A01 T03530173  RH  035%=      5-min Rain = 0
KPD4 200055Z 15019KT 35/17 A2979 RMK A01 T03530174  RH  035%=      5-min Rain = 0
KPD4 200056Z 15018KT 35/17 A2979 RMK A01 T03510173  RH  035%=      5-min Rain = 0
KPD4 200057Z 15018G24KT 35/17 A2979 RMK A01 T03510174  RH  035%=      5-min Rain = 0
KPD4 200058Z 15020KT 35/17 A2979 RMK A01 T03500173  RH  035%=      5-min Rain = 0
KPD4 200059Z 15020KT 35/17 A2979 RMK A01 T03500174  RH  035%=      5-min Rain = 0
KPD4 200100Z 16017G23KT 35/18 A2979 RMK A01 T03490175  RH  036%=      5-min Rain = 0
KPD4 200101Z 16016KT 35/18 A2979 RMK A01 T03480175  RH  036%=      5-min Rain = 0
KPD4 200102Z 15018G23KT 35/18 A2979 RMK A01 T03470176  RH  036%=      5-min Rain = 0
KPD4 200103Z 15018KT 35/18 A2979 RMK A01 T03460175  RH  036%=      5-min Rain = 0
KPD4 200104Z 15016KT 35/18 A2979 RMK A01 T03460175  RH  036%=      5-min Rain = 0
KPD4 200105Z 15019KT 35/17 A2979 RMK A01 T03450174  RH  036%=      5-min Rain = 0
KPD4 200106Z 16018KT 35/18 A2979 RMK A01 T03450175  RH  036%=      5-min Rain = 0
KPD4 200107Z 16017KT 35/18 A2979 RMK A01 T03450175  RH  036%=      5-min Rain = 0
KPD4 200108Z 15020KT 34/17 A2979 RMK A01 T03440173  RH  036%=      5-min Rain = 0
KPD4 200109Z 16016KT 35/17 A2979 RMK A01 T03450173  RH  036%=      5-min Rain = 0
KPD4 200110Z 16018KT 35/17 A2979 RMK A01 T03450174  RH  036%=      5-min Rain = 0
KPD4 200111Z 16017KT 34/17 A2979 RMK A01 T03440174  RH  037%=      5-min Rain = 0
KPD4 200112Z 15018KT 34/17 A298 RMK A01 T03440174  RH  037%=      5-min Rain = 0
KPD4 200113Z 15018KT 34/17 A298 RMK A01 T03440173  RH  036%=      5-min Rain = 0
KPD4 200114Z 16016KT 34/17 A298 RMK A01 T03440174  RH  036%=      5-min Rain = 0
KPD4 200115Z 16017KT 34/17 A298 RMK A01 T03430173  RH  037%=      5-min Rain = 0
KPD4 200116Z 16016KT 34/17 A298 RMK A01 T03430174  RH  037%=      5-min Rain = 0
KPD4 200117Z 16019KT 34/17 A298 RMK A01 T03420174  RH  037%=      5-min Rain = 0
KPD4 200118Z 16018G24KT 34/17 A298 RMK A01 T03420173  RH  037%=      5-min Rain = 0
KPD4 200119Z 16019KT 34/17 A298 RMK A01 T03420172  RH  036%=      5-min Rain = 0
KPD4 200120Z 15018G23KT 34/17 A298 RMK A01 T03430173  RH  036%=      5-min Rain = 0
KPD4 200121Z 16017KT 34/17 A298 RMK A01 T03430173  RH  036%=      5-min Rain = 0
KPD4 200122Z 15018G23KT 34/17 A298 RMK A01 T03420173  RH  037%=      5-min Rain = 0
KPD4 200123Z 16017KT 34/17 A298 RMK A01 T03410173  RH  037%=      5-min Rain = 0
KPD4 200124Z 15018G24KT 34/17 A298 RMK A01 T03420173  RH  037%=      5-min Rain = 0
KPD4 200125Z 15018KT 34/17 A298 RMK A01 T03410173  RH  037%=      5-min Rain = 0
KPD4 200126Z 15016KT 34/17 A298 RMK A01 T03410173  RH  037%=      5-min Rain = 0
KPD4 200127Z 15016G21KT 34/17 A298 RMK A01 T03400173  RH  037%=      5-min Rain = 0
KPD4 200128Z 15015KT 34/17 A298 RMK A01 T03400174  RH  037%=      5-min Rain = 0
KPD4 200129Z 16016G21KT 34/17 A298 RMK A01 T03390173  RH  037%=      5-min Rain = 0
KPD4 200130Z 16015KT 34/17 A298 RMK A01 T03380173  RH  037%=      5-min Rain = 0
KPD4 200131Z 15017KT 34/17 A298 RMK A01 T03370173  RH  038%=      5-min Rain = 0
KPD4 200132Z 16015KT 34/17 A298 RMK A01 T03370173  RH  038%=      5-min Rain = 0
KPD4 200133Z 15016G21KT 34/17 A298 RMK A01 T03370173  RH  038%=      5-min Rain = 0
KPD4 200134Z 15015G21KT 34/17 A298 RMK A01 T03370173  RH  038%=      5-min Rain = 0
KPD4 200135Z 16014KT 34/17 A298 RMK A01 T03370174  RH  038%=      5-min Rain = 0
KPD4 200136Z 15017KT 34/17 A298 RMK A01 T03360173  RH  038%=      5-min Rain = 0
KPD4 200137Z 16017G23KT 34/17 A298 RMK A01 T03360172  RH  038%=      5-min Rain = 0
KPD4 200138Z 16017G22KT 34/17 A298 RMK A01 T03370172  RH  037%=      5-min Rain = 0
KPD4 200139Z 16015G20KT 34/17 A298 RMK A01 T03370172  RH  037%=      5-min Rain = 0
KPD4 200140Z 16020KT 34/17 A298 RMK A01 T03370172  RH  037%=      5-min Rain = 0
KPD4 200141Z 15017G22KT 34/17 A298 RMK A01 T03370172  RH  037%=      5-min Rain = 0
KPD4 200142Z 16017G22KT 34/17 A298 RMK A01 T03380173  RH  038%=      5-min Rain = 0
KPD4 200143Z 16016G21KT 34/17 A298 RMK A01 T03370173  RH  038%=      5-min Rain = 0
KPD4 200144Z 16019KT 34/17 A298 RMK A01 T03360172  RH  038%=      5-min Rain = 0
KPD4 200145Z 16016KT 34/17 A298 RMK A01 T03360173  RH  038%=      5-min Rain = 0
KPD4 200146Z 16018KT 34/17 A298 RMK A01 T03360172  RH  038%=      5-min Rain = 0
KPD4 200147Z 15017KT 34/17 A298 RMK A01 T03360172  RH  038%=      5-min Rain = 0
KPD4 200148Z 16016G22KT 34/17 A298 RMK A01 T03350172  RH  038%=      5-min Rain = 0
KPD4 200149Z 15017KT 34/17 A298 RMK A01 T03350172  RH  038%=      5-min Rain = 0
KPD4 200150Z 16016KT 33/17 A298 RMK A01 T03340173  RH  038%=      5-min Rain = 0
KPD4 200151Z 16015KT 33/17 A298 RMK A01 T03330173  RH  038%=      5-min Rain = 0
KPD4 200152Z 15016KT 33/17 A298 RMK A01 T03330173  RH  039%=      5-min Rain = 0
KPD4 200153Z 16016KT 33/17 A298 RMK A01 T03330172  RH  039%=      5-min Rain = 0
KPD4 200154Z 15017KT 33/17 A298 RMK A01 T03320172  RH  038%=      5-min Rain = 0
KPD4 200155Z 16016KT 33/17 A298 RMK A01 T03330172  RH  038%=      5-min Rain = 0
KPD4 200156Z 16014KT 33/17 A298 RMK A01 T03330173  RH  039%=      5-min Rain = 0
KPD4 200157Z 16017KT 33/17 A298 RMK A01 T03310172  RH  039%=      5-min Rain = 0
KPD4 200158Z 16017G23KT 33/17 A298 RMK A01 T03310171  RH  038%=      5-min Rain = 0
KPD4 200159Z 16018KT 33/17 A298 RMK A01 T03310171  RH  038%=      5-min Rain = 0
KPD4 200200Z 15015KT 33/17 A298 RMK A01 T03320171  RH  038%=      5-min Rain = 0
KPD4 200201Z 16017G22KT 33/17 A298 RMK A01 T03320172  RH  039%=      5-min Rain = 0
KPD4 200202Z 16017KT 33/17 A298 RMK A01 T03310172  RH  039%=      5-min Rain = 0
KPD4 200203Z 15015KT 33/17 A298 RMK A01 T03310172  RH  039%=      5-min Rain = 0
KPD4 200204Z 16018KT 33/17 A298 RMK A01 T03310172  RH  039%=      5-min Rain = 0
KPD4 200205Z 16016KT 33/17 A298 RMK A01 T03310172  RH  039%=      5-min Rain = 0
KPD4 200206Z 16016KT 33/17 A298 RMK A01 T03300172  RH  039%=      5-min Rain = 0
KPD4 200207Z 16017KT 33/17 A298 RMK A01 T03300171  RH  039%=      5-min Rain = 0
KPD4 200208Z 16018KT 33/17 A298 RMK A01 T03300171  RH  039%=      5-min Rain = 0
KPD4 200209Z 15017G22KT 33/17 A298 RMK A01 T03300171  RH  039%=      5-min Rain = 0
KPD4 200210Z 16017KT 33/17 A298 RMK A01 T03300171  RH  039%=      5-min Rain = 0
KPD4 200211Z 16018KT 33/17 A298 RMK A01 T03290171  RH  039%=      5-min Rain = 0
KPD4 200212Z 16018KT 33/17 A298 RMK A01 T03290171  RH  039%=      5-min Rain = 0
KPD4 200213Z 16015KT 33/17 A298 RMK A01 T03290171  RH  039%=      5-min Rain = 0
KPD4 200214Z 16017KT 33/17 A298 RMK A01 T03280171  RH  039%=      5-min Rain = 0
KPD4 200215Z 16017KT 33/17 A298 RMK A01 T03280171  RH  039%=      5-min Rain = 0
KPD4 200216Z 16019KT 33/17 A298 RMK A01 T03280171  RH  039%=      5-min Rain = 0
KPD4 200217Z 16018KT 33/17 A298 RMK A01 T03280170  RH  039%=      5-min Rain = 0
KPD4 200218Z 16016KT 33/17 A298 RMK A01 T03280170  RH  039%=      5-min Rain = 0
KPD4 200219Z 16016KT 33/17 A298 RMK A01 T03280170  RH  039%=      5-min Rain = 0
KPD4 200220Z 16016KT 33/17 A2981 RMK A01 T03270171  RH  039%=      5-min Rain = 0
KPD4 200221Z 16015G20KT 33/17 A2981 RMK A01 T03270170  RH  039%=      5-min Rain = 0
KPD4 200222Z 16018KT 33/17 A298 RMK A01 T03270169  RH  039%=      5-min Rain = 0
KPD4 200223Z 16017KT 33/17 A2981 RMK A01 T03270169  RH  039%=      5-min Rain = 0
KPD4 200224Z 16016KT 33/17 A298 RMK A01 T03270169  RH  039%=      5-min Rain = 0
KPD4 200225Z 15015KT 33/17 A2981 RMK A01 T03260170  RH  039%=      5-min Rain = 0
KPD4 200226Z 15015KT 33/17 A2981 RMK A01 T03250171  RH  040%=      5-min Rain = 0
KPD4 200227Z 16015KT 33/17 A2981 RMK A01 T03250171  RH  040%=      5-min Rain = 0
KPD4 200228Z 16016KT 33/17 A2981 RMK A01 T03250170  RH  040%=      5-min Rain = 0
KPD4 200229Z 15015KT 32/17 A2981 RMK A01 T03240170  RH  040%=      5-min Rain = 0
KPD4 200230Z 15015KT 32/17 A2981 RMK A01 T03240169  RH  040%=      5-min Rain = 0
KPD4 200231Z 16016G22KT 32/17 A2981 RMK A01 T03240170  RH  040%=      5-min Rain = 0
KPD4 200232Z 15016KT 32/17 A2981 RMK A01 T03230170  RH  040%=      5-min Rain = 0
KPD4 200233Z 15016G21KT 32/17 A2981 RMK A01 T03240170  RH  040%=      5-min Rain = 0
KPD4 200234Z 16017KT 32/17 A2981 RMK A01 T03230170  RH  040%=      5-min Rain = 0
KPD4 200235Z 16017KT 32/17 A2981 RMK A01 T03230170  RH  040%=      5-min Rain = 0
KPD4 200236Z 15015KT 32/17 A2981 RMK A01 T03230170  RH  040%=      5-min Rain = 0
KPD4 200237Z 16017KT 32/17 A2981 RMK A01 T03230170  RH  040%=      5-min Rain = 0
KPD4 200238Z 15017KT 32/17 A2981 RMK A01 T03230170  RH  040%=      5-min Rain = 0
KPD4 200239Z 15017KT 32/17 A2981 RMK A01 T03230170  RH  040%=      5-min Rain = 0
KPD4 200240Z 15017KT 32/17 A2981 RMK A01 T03220171  RH  040%=      5-min Rain = 0
KPD4 200241Z 15017KT 32/17 A2981 RMK A01 T03210171  RH  041%=      5-min Rain = 0
KPD4 200242Z 15017KT 32/17 A2981 RMK A01 T03210170  RH  040%=      5-min Rain = 0
KPD4 200243Z 15019KT 32/17 A2981 RMK A01 T03210170  RH  041%=      5-min Rain = 0
KPD4 200244Z 16016KT 32/17 A2981 RMK A01 T03210169  RH  040%=      5-min Rain = 0
KPD4 200245Z 15014KT 32/17 A2981 RMK A01 T03210171  RH  041%=      5-min Rain = 0
KPD4 200246Z 16017KT 32/17 A2981 RMK A01 T03200171  RH  041%=      5-min Rain = 0
KPD4 200247Z 16015KT 32/17 A2981 RMK A01 T03190172  RH  041%=      5-min Rain = 0
KPD4 200248Z 16017KT 32/17 A2981 RMK A01 T03180171  RH  041%=      5-min Rain = 0
KPD4 200249Z 15017KT 32/17 A2981 RMK A01 T03190171  RH  041%=      5-min Rain = 0
KPD4 200250Z 16017KT 32/17 A2981 RMK A01 T03190170  RH  041%=      5-min Rain = 0
KPD4 200251Z 16015KT 32/17 A2981 RMK A01 T03190171  RH  041%=      5-min Rain = 0
KPD4 200252Z 16017KT 32/17 A2981 RMK A01 T03190172  RH  042%=      5-min Rain = 0
KPD4 200253Z 16016KT 32/17 A2981 RMK A01 T03180171  RH  041%=      5-min Rain = 0
KPD4 200254Z 16016KT 32/17 A2981 RMK A01 T03180170  RH  041%=      5-min Rain = 0
KPD4 200255Z 16017KT 32/17 A2981 RMK A01 T03180170  RH  041%=      5-min Rain = 0
KPD4 200256Z 16017KT 32/17 A2981 RMK A01 T03180171  RH  041%=      5-min Rain = 0
KPD4 200257Z 16016KT 32/17 A2981 RMK A01 T03180171  RH  041%=      5-min Rain = 0
KPD4 200258Z 16017KT 32/17 A2981 RMK A01 T03180171  RH  041%=      5-min Rain = 0
KPD4 200259Z 16016KT 32/17 A2981 RMK A01 T03170170  RH  041%=      5-min Rain = 0
KPD4 200300Z 16018KT 32/17 A2981 RMK A01 T03170171  RH  041%=      5-min Rain = 0
KPD4 200301Z 16019KT 32/17 A2981 RMK A01 T03170169  RH  041%=      5-min Rain = 0
KPD4 200302Z 16016KT 32/17 A2981 RMK A01 T03180170  RH  041%=      5-min Rain = 0
KPD4 200303Z 16015KT 32/17 A2981 RMK A01 T03180171  RH  041%=      5-min Rain = 0
KPD4 200304Z 15015KT 32/17 A2982 RMK A01 T03160170  RH  042%=      5-min Rain = 0
KPD4 200305Z 16017KT 32/17 A2982 RMK A01 T03150170  RH  042%=      5-min Rain = 0
KPD4 200306Z 16018G23KT 32/17 A2982 RMK A01 T03150169  RH  042%=      5-min Rain = 0
KPD4 200307Z 16018G23KT 32/17 A2982 RMK A01 T03160169  RH  041%=      5-min Rain = 0
KPD4 200308Z 16015KT 32/17 A2982 RMK A01 T03160169  RH  041%=      5-min Rain = 0
KPD4 200309Z 16017KT 32/17 A2982 RMK A01 T03150169  RH  042%=      5-min Rain = 0
KPD4 200310Z 16019KT 32/17 A2982 RMK A01 T03150169  RH  042%=      5-min Rain = 0
KPD4 200311Z 16018KT 32/17 A2982 RMK A01 T03150169  RH  041%=      5-min Rain = 0
KPD4 200312Z 16018KT 32/17 A2982 RMK A01 T03160168  RH  041%=      5-min Rain = 0
KPD4 200313Z 16019KT 32/17 A2982 RMK A01 T03160169  RH  041%=      5-min Rain = 0
KPD4 200314Z 16018KT 32/17 A2982 RMK A01 T03160168  RH  041%=      5-min Rain = 0
KPD4 200315Z 16018KT 32/17 A2982 RMK A01 T03160168  RH  041%=      5-min Rain = 0
KPD4 200316Z 16018KT 32/17 A2982 RMK A01 T03160169  RH  041%=      5-min Rain = 0
KPD4 200317Z 16018G25KT 32/17 A2982 RMK A01 T03160168  RH  041%=      5-min Rain = 0
KPD4 200318Z 16020KT 32/17 A2982 RMK A01 T03150167  RH  041%=      5-min Rain = 0
KPD4 200319Z 16020KT 32/17 A2982 RMK A01 T03160167  RH  041%=      5-min Rain = 0
KPD4 200320Z 16018KT 32/17 A2982 RMK A01 T03160167  RH  041%=      5-min Rain = 0
KPD4 200321Z 16016KT 32/17 A2982 RMK A01 T03160168  RH  041%=      5-min Rain = 0
KPD4 200322Z 16017G22KT 32/17 A2982 RMK A01 T03150168  RH  041%=      5-min Rain = 0
KPD4 200323Z 16017KT 32/17 A2982 RMK A01 T03150168  RH  041%=      5-min Rain = 0
KPD4 200324Z 15017KT 32/17 A2982 RMK A01 T03150168  RH  041%=      5-min Rain = 0
KPD4 200325Z 16016KT 31/17 A2982 RMK A01 T03140168  RH  041%=      5-min Rain = 0
KPD4 200326Z 16015KT 31/17 A2983 RMK A01 T03140168  RH  042%=      5-min Rain = 0
KPD4 200327Z 16016KT 31/17 A2983 RMK A01 T03130168  RH  042%=      5-min Rain = 0
KPD4 200328Z 16019KT 31/17 A2983 RMK A01 T03140167  RH  042%=      5-min Rain = 0
KPD4 200329Z 16019KT 31/17 A2983 RMK A01 T03140167  RH  041%=      5-min Rain = 0
KPD4 200330Z 16016G21KT 31/17 A2983 RMK A01 T03140166  RH  041%=      5-min Rain = 0
KPD4 200331Z 16019KT 31/17 A2983 RMK A01 T03140167  RH  041%=      5-min Rain = 0
KPD4 200332Z 16017KT 31/17 A2983 RMK A01 T03130166  RH  041%=      5-min Rain = 0
KPD4 200333Z 16016KT 31/17 A2983 RMK A01 T03130166  RH  041%=      5-min Rain = 0
KPD4 200334Z 16017KT 31/17 A2983 RMK A01 T03130166  RH  041%=      5-min Rain = 0
KPD4 200335Z 16016KT 31/17 A2983 RMK A01 T03130166  RH  041%=      5-min Rain = 0
KPD4 200336Z 16018KT 31/17 A2983 RMK A01 T03130165  RH  041%=      5-min Rain = 0
KPD4 200337Z 16017G22KT 31/17 A2983 RMK A01 T03130165  RH  041%=      5-min Rain = 0
KPD4 200338Z 16018G23KT 31/17 A2983 RMK A01 T03130165  RH  041%=      5-min Rain = 0
KPD4 200339Z 16021KT 31/17 A2983 RMK A01 T03130165  RH  041%=      5-min Rain = 0
KPD4 200340Z 16017KT 31/17 A2983 RMK A01 T03130165  RH  041%=      5-min Rain = 0
KPD4 200341Z 16018KT 31/17 A2983 RMK A01 T03130165  RH  041%=      5-min Rain = 0
KPD4 200342Z 16015KT 31/17 A2983 RMK A01 T03120165  RH  041%=      5-min Rain = 0
KPD4 200343Z 16018KT 31/17 A2983 RMK A01 T03110165  RH  041%=      5-min Rain = 0
KPD4 200344Z 16018KT 31/17 A2983 RMK A01 T03110165  RH  041%=      5-min Rain = 0
KPD4 200345Z 16016G21KT 31/16 A2983 RMK A01 T03110164  RH  041%=      5-min Rain = 0
KPD4 200346Z 16017G22KT 31/16 A2983 RMK A01 T03110164  RH  041%=      5-min Rain = 0
KPD4 200347Z 16017KT 31/17 A2983 RMK A01 T03110165  RH  041%=      5-min Rain = 0
KPD4 200348Z 16017KT 31/17 A2983 RMK A01 T03110165  RH  042%=      5-min Rain = 0
KPD4 200349Z 16018KT 31/16 A2983 RMK A01 T03100164  RH  042%=      5-min Rain = 0
KPD4 200350Z 16020KT 31/16 A2983 RMK A01 T03100164  RH  042%=      5-min Rain = 0
KPD4 200351Z 16017KT 31/16 A2983 RMK A01 T03100164  RH  041%=      5-min Rain = 0
KPD4 200352Z 16017KT 31/16 A2984 RMK A01 T03110164  RH  041%=      5-min Rain = 0
KPD4 200353Z 17018KT 31/16 A2984 RMK A01 T03100164  RH  041%=      5-min Rain = 0
KPD4 200354Z 16018KT 31/16 A2984 RMK A01 T03100164  RH  041%=      5-min Rain = 0
KPD4 200355Z 16017KT 31/16 A2984 RMK A01 T03100164  RH  041%=      5-min Rain = 0
KPD4 200356Z 16019G24KT 31/16 A2984 RMK A01 T03100164  RH  041%=      5-min Rain = 0
KPD4 200357Z 16016G21KT 31/16 A2984 RMK A01 T03100164  RH  041%=      5-min Rain = 0
KPD4 200358Z 16017KT 31/16 A2984 RMK A01 T03100164  RH  042%=      5-min Rain = 0
KPD4 200359Z 17015KT 31/16 A2984 RMK A01 T03090164  RH  042%=      5-min Rain = 0
KPD4 200400Z 16015KT 31/16 A2984 RMK A01 T03090164  RH  042%=      5-min Rain = 0
KPD4 200401Z 16018KT 31/16 A2984 RMK A01 T03080164  RH  042%=      5-min Rain = 0
KPD4 200402Z 16018KT 31/16 A2984 RMK A01 T03080164  RH  042%=      5-min Rain = 0
KPD4 200403Z 16014KT 31/16 A2984 RMK A01 T03080164  RH  042%=      5-min Rain = 0
KPD4 200404Z 16017KT 31/16 A2984 RMK A01 T03080164  RH  042%=      5-min Rain = 0
KPD4 200405Z 16018KT 31/16 A2984 RMK A01 T03080164  RH  042%=      5-min Rain = 0
KPD4 200406Z 16019KT 31/16 A2984 RMK A01 T03080164  RH  042%=      5-min Rain = 0
KPD4 200407Z 17016KT 31/16 A2984 RMK A01 T03080164  RH  042%=      5-min Rain = 0
KPD4 200408Z 17017KT 31/16 A2984 RMK A01 T03090164  RH  042%=      5-min Rain = 0
KPD4 200409Z 16019KT 31/16 A2984 RMK A01 T03080164  RH  042%=      5-min Rain = 0
KPD4 200410Z 17018KT 31/16 A2984 RMK A01 T03080164  RH  042%=      5-min Rain = 0
KPD4 200411Z 16018KT 31/16 A2984 RMK A01 T03080164  RH  042%=      5-min Rain = 0
KPD4 200412Z 16018KT 31/16 A2984 RMK A01 T03080163  RH  042%=      5-min Rain = 0
KPD4 200413Z 17016KT 31/16 A2984 RMK A01 T03080163  RH  042%=      5-min Rain = 0
KPD4 200414Z 17015KT 31/16 A2984 RMK A01 T03080164  RH  042%=      5-min Rain = 0
KPD4 200415Z 17017G22KT 31/16 A2984 RMK A01 T03070164  RH  042%=      5-min Rain = 0
KPD4 200416Z 17017KT 31/16 A2984 RMK A01 T03070164  RH  042%=      5-min Rain = 0
KPD4 200417Z 17015KT 31/16 A2984 RMK A01 T03070163  RH  042%=      5-min Rain = 0
KPD4 200418Z 17016G21KT 31/16 A2984 RMK A01 T03060163  RH  042%=      5-min Rain = 0
KPD4 200419Z 17016KT 31/16 A2984 RMK A01 T03060164  RH  042%=      5-min Rain = 0
KPD4 200420Z 17017KT 31/16 A2984 RMK A01 T03050163  RH  042%=      5-min Rain = 0
KPD4 200421Z 17016KT 31/16 A2984 RMK A01 T03060163  RH  042%=      5-min Rain = 0
KPD4 200422Z 17016KT 31/16 A2984 RMK A01 T03060163  RH  042%=      5-min Rain = 0
KPD4 200423Z 17018KT 31/16 A2984 RMK A01 T03060163  RH  042%=      5-min Rain = 0
KPD4 200424Z 17017KT 31/16 A2984 RMK A01 T03060163  RH  042%=      5-min Rain = 0
KPD4 200425Z 17017KT 31/16 A2984 RMK A01 T03060163  RH  042%=      5-min Rain = 0
KPD4 200426Z 17018KT 31/16 A2984 RMK A01 T03060163  RH  042%=      5-min Rain = 0
KPD4 200427Z 17016KT 31/16 A2984 RMK A01 T03070163  RH  042%=      5-min Rain = 0
KPD4 200428Z 17017KT 31/16 A2984 RMK A01 T03070163  RH  042%=      5-min Rain = 0
KPD4 200429Z 17016KT 31/16 A2984 RMK A01 T03060163  RH  042%=      5-min Rain = 0
KPD4 200430Z 17019G25KT 31/16 A2984 RMK A01 T03050163  RH  042%=      5-min Rain = 0
KPD4 200431Z 17018KT 31/16 A2984 RMK A01 T03050162  RH  042%=      5-min Rain = 0
KPD4 200432Z 17015KT 31/16 A2984 RMK A01 T03060163  RH  042%=      5-min Rain = 0
KPD4 200433Z 17016KT 31/16 A2984 RMK A01 T03050163  RH  042%=      5-min Rain = 0
KPD4 200434Z 17017G22KT 31/16 A2984 RMK A01 T03050163  RH  042%=      5-min Rain = 0
KPD4 200435Z 17017KT 30/16 A2984 RMK A01 T03040163  RH  042%=      5-min Rain = 0
KPD4 200436Z 17018KT 30/16 A2984 RMK A01 T03040162  RH  042%=      5-min Rain = 0
KPD4 200437Z 17018KT 30/16 A2984 RMK A01 T03040162  RH  042%=      5-min Rain = 0
KPD4 200438Z 17018KT 31/16 A2984 RMK A01 T03050162  RH  042%=      5-min Rain = 0
KPD4 200439Z 17018KT 31/16 A2984 RMK A01 T03050162  RH  042%=      5-min Rain = 0
KPD4 200440Z 17018KT 31/16 A2985 RMK A01 T03050163  RH  042%=      5-min Rain = 0
KPD4 200441Z 17019G24KT 31/16 A2984 RMK A01 T03050162  RH  042%=      5-min Rain = 0
KPD4 200442Z 17018KT 31/16 A2984 RMK A01 T03050162  RH  042%=      5-min Rain = 0
KPD4 200443Z 17018G23KT 31/16 A2985 RMK A01 T03050162  RH  042%=      5-min Rain = 0
KPD4 200444Z 17019KT 31/16 A2985 RMK A01 T03050162  RH  042%=      5-min Rain = 0
KPD4 200445Z 17017KT 31/16 A2985 RMK A01 T03050162  RH  042%=      5-min Rain = 0
KPD4 200446Z 17017G22KT 31/16 A2985 RMK A01 T03050162  RH  042%=      5-min Rain = 0
KPD4 200447Z 17015KT 30/16 A2985 RMK A01 T03040162  RH  042%=      5-min Rain = 0
KPD4 200448Z 18018KT 30/16 A2985 RMK A01 T03030162  RH  043%=      5-min Rain = 0
KPD4 200449Z 17018KT 30/16 A2985 RMK A01 T03030162  RH  043%=      5-min Rain = 0
KPD4 200450Z 18015KT 30/16 A2985 RMK A01 T03030162  RH  043%=      5-min Rain = 0
KPD4 200451Z 18017KT 30/16 A2985 RMK A01 T03030162  RH  043%=      5-min Rain = 0
KPD4 200452Z 17019KT 30/16 A2985 RMK A01 T03030162  RH  043%=      5-min Rain = 0
KPD4 200453Z 18018KT 30/16 A2985 RMK A01 T03030162  RH  043%=      5-min Rain = 0
KPD4 200454Z 18017KT 30/16 A2985 RMK A01 T03030162  RH  043%=      5-min Rain = 0
KPD4 200455Z 18016KT 30/16 A2985 RMK A01 T03030162  RH  043%=      5-min Rain = 0
KPD4 200456Z 17016KT 30/16 A2985 RMK A01 T03020163  RH  043%=      5-min Rain = 0
KPD4 200457Z 18018KT 30/16 A2985 RMK A01 T03010163  RH  043%=      5-min Rain = 0
KPD4 200458Z 18016KT 30/16 A2985 RMK A01 T03010163  RH  043%=      5-min Rain = 0
KPD4 200459Z 17017KT 30/16 A2985 RMK A01 T03010163  RH  043%=      5-min Rain = 0

Page generated in 0.1313 seconds.